Flight Track Log - Related Links

Times and Time Zones

All times are in EDT time to prevent confusion due to time zone crossing. See the DAL268 flight status page for this flight to view local times or setup timezone preferences in your user account.

Time Position Orientation Groundspeed Altitude Reporting Facility
EDT Latitude Longitude Course Direction KTS MPH feet Rate Location/Type
Sat 11:59:17 PM 40.6330 -73.7800 120° Southeast  Level FlightAware ADS-B
Sun 12:09:00 AM 40.5421 -73.4929 114° Southeast  Level FlightAware Approximate
Sun 12:10:00 AM 40.4865 -73.3261 114° Southeast  Level FlightAware Approximate
Sun 12:11:00 AM 40.4384 -73.1563 119° Southeast  Level FlightAware Approximate
Sun 12:12:00 AM 40.3833 -72.9903 90° East  Level FlightAware Approximate
Sun 12:13:00 AM 40.4176 -72.8130 72° East  Level FlightAware Approximate
Sun 12:23:00 AM 40.4930 -73.3456 114° Southeast  Level FlightAware Approximate
Sun 12:24:00 AM 40.4464 -73.1749 119° Southeast  Level FlightAware Approximate
Sun 12:25:00 AM 40.3833 -73.0116 90° East  Level FlightAware Approximate
Sun 12:26:00 AM 40.4133 -72.8336 75° East  Level FlightAware Approximate
Sun 12:29:00 AM 40.4889 -73.3333 114° Southeast  Level FlightAware Approximate
Sun 12:30:00 AM 40.4414 -73.1632 119° Southeast  Level FlightAware Approximate
Sun 12:31:00 AM 40.3833 -72.9982 90° East  Level FlightAware Approximate
Sun 12:32:00 AM 40.4159 -72.8205 75° East  Level FlightAware Approximate
Sun 12:33:00 AM 40.4478 -72.6566 66° East  Level FlightAware Approximate
Sun 12:34:00 AM 40.4799 -72.4908 79° East  Level FlightAware Approximate
Sun 12:35:00 AM 40.5167 -72.3304 90° East  Level FlightAware Approximate
Sun 12:36:00 AM 40.5534 -72.1700 72° East  Level FlightAware Approximate
Sun 12:37:00 AM 40.5933 -72.0103 72° East  Level FlightAware Approximate
Sun 12:38:00 AM 40.6281 -71.8490 66° East  Level FlightAware Approximate
Sun 12:39:00 AM 40.6685 -71.6893 78° East  Level FlightAware Approximate
Sun 12:40:00 AM 40.6959 -71.5248 78° East  Level FlightAware Approximate
Sun 12:41:00 AM 40.7297 -71.3623 74° East  Level FlightAware Approximate
Sun 12:42:00 AM 40.7644 -71.2001 74° East  Level FlightAware Approximate
Sun 12:43:00 AM 40.7990 -71.0376 74° East  Level FlightAware Approximate
Sun 12:44:00 AM 40.8333 -70.8750 74° East  Level FlightAware Approximate
Sun 12:45:00 AM 40.8673 -70.7123 74° East  Level FlightAware Approximate
Sun 12:46:00 AM 40.9012 -70.5493 75° East  Level FlightAware Approximate
Sun 12:47:00 AM 40.9348 -70.3862 75° East  Level FlightAware Approximate
Sun 12:48:00 AM 40.9682 -70.2230 75° East  Level FlightAware Approximate
Sun 12:49:00 AM 41.0013 -70.0595 75° East  Level FlightAware Approximate
Sun 12:50:00 AM 41.0342 -69.8959 75° East  Level FlightAware Approximate
Sun 12:51:00 AM 41.0672 -69.7324 53° Northeast  Level FlightAware Approximate
Sun 12:52:00 AM 41.1445 -69.5974 53° Northeast  Level FlightAware Approximate
Sun 12:53:00 AM 41.2223 -69.4627 52° Northeast  Level FlightAware Approximate
Sun 12:54:00 AM 41.3015 -69.3295 52° Northeast  Level FlightAware Approximate
Sun 12:55:00 AM 41.3807 -69.1959 52° Northeast  Level FlightAware Approximate
Sun 12:56:00 AM 41.4596 -69.0620 52° Northeast  Level FlightAware Approximate
Sun 12:57:00 AM 41.5373 -68.9266 53° Northeast  Level FlightAware Approximate
Sun 12:58:00 AM 41.6149 -68.7909 52° Northeast  Level FlightAware Approximate
Sun 12:59:00 AM 41.6928 -68.6554 52° Northeast  Level FlightAware Approximate
Sun 01:00:00 AM 41.7705 -68.5195 52° Northeast  Level FlightAware Approximate
Sun 01:01:00 AM 41.8481 -68.3834 53° Northeast  Level FlightAware Approximate
Sun 01:02:00 AM 41.9255 -68.2469 53° Northeast  Level FlightAware Approximate
Sun 01:03:00 AM 42.0028 -68.1100 53° Northeast  Level FlightAware Approximate
Sun 01:04:00 AM 42.0798 -67.9729 53° Northeast  Level FlightAware Approximate
Sun 01:05:00 AM 42.1568 -67.8354 53° Northeast  Level FlightAware Approximate
Sun 01:06:00 AM 42.2307 -67.7027 53° Northeast  Level FlightAware Approximate
Sun 01:07:00 AM 42.3045 -67.5696 53° Northeast  Level FlightAware Approximate
Sun 01:08:00 AM 42.3781 -67.4362 53° Northeast  Level FlightAware Approximate
Sun 01:09:00 AM 42.4516 -67.3026 53° Northeast  Level FlightAware Approximate
Sun 01:10:00 AM 42.5249 -67.1686 53° Northeast  Level FlightAware Approximate
Sun 01:11:00 AM 42.5980 -67.0343 53° Northeast  Level FlightAware Approximate
Sun 01:12:00 AM 42.6691 -66.8978 55° Northeast  Level FlightAware Approximate
Sun 01:13:00 AM 42.7394 -66.7604 55° Northeast  Level FlightAware Approximate
Sun 01:14:00 AM 42.8095 -66.6227 55° Northeast  Level FlightAware Approximate
Sun 01:15:00 AM 42.8794 -66.4846 55° Northeast  Level FlightAware Approximate
Sun 01:16:00 AM 42.9492 -66.3463 55° Northeast  Level FlightAware Approximate
Sun 01:17:00 AM 43.0188 -66.2076 55° Northeast  Level FlightAware Approximate
Sun 01:18:00 AM 43.0883 -66.0686 56° Northeast  Level FlightAware Approximate
Sun 01:19:00 AM 43.1575 -65.9293 56° Northeast  Level FlightAware Approximate
Sun 01:20:00 AM 43.2266 -65.7897 56° Northeast  Level FlightAware Approximate
Sun 01:21:00 AM 43.2956 -65.6498 56° Northeast  Level FlightAware Approximate
Sun 01:22:00 AM 43.3643 -65.5095 56° Northeast  Level FlightAware Approximate
Sun 01:23:00 AM 43.4329 -65.3690 56° Northeast  Level FlightAware Approximate
Sun 01:24:00 AM 43.5013 -65.2281 56° Northeast  Level FlightAware Approximate
Sun 01:25:00 AM 43.5696 -65.0869 56° Northeast  Level FlightAware Approximate
Sun 01:26:00 AM 43.6377 -64.9454 56° Northeast  Level FlightAware Approximate
Sun 01:27:00 AM 43.7057 -64.8037 56° Northeast  Level FlightAware Approximate
Sun 01:28:00 AM 43.7740 -64.6620 56° Northeast  Level FlightAware Approximate
Sun 01:29:00 AM 43.8421 -64.5201 56° Northeast  Level FlightAware Approximate
Sun 01:30:00 AM 43.9101 -64.3778 56° Northeast  Level FlightAware Approximate
Sun 01:31:00 AM 43.9754 -64.2402 57° Northeast  Level FlightAware Approximate
Sun 01:31:21 AM 40.6270 -73.7830 57° Northeast  Level FlightAware ADS-B
Sun 01:32:00 AM 44.0505 -64.0813 57° Northeast  Level FlightAware Approximate
Sun 01:33:00 AM 44.1255 -63.9220 57° Northeast  Level FlightAware Approximate
Sun 01:33:09 AM 40.6270 -73.7840 270° West  Level FlightAware ADS-B
Sun 01:40:00 AM 40.5055 -73.3944 123° Southeast  Level FlightAware Approximate
Sun 01:41:00 AM 40.4592 -73.2292 105° East  Level FlightAware Approximate
Sun 01:42:00 AM 40.4006 -73.0680 119° Southeast  Level FlightAware Approximate
Sun 01:43:00 AM 40.4006 -72.8969 75° East  Level FlightAware Approximate
Sun 01:49:27 AM 40.6220 -73.7900 301° West 125 144  Level FlightAware ADS-B
Sun 01:49:48 AM 40.6290 -73.8070 298° West 175 201 293 Level FlightAware ADS-B
Sun 01:50:00 AM 40.6340 -73.8180 301° West 184 212 600 Level FlightAware ADS-B
Sun 01:50:08 AM 40.6380 -73.8260 303° West 182 209 200 1,500 Climbing FlightAware ADS-B
Sun 01:50:16 AM 40.6390 -73.8350 278° West 183 211 400 1,500 Climbing FlightAware ADS-B
Sun 01:50:36 AM 40.6320 -73.8560 246° West 191 220 900 1,500 Climbing FlightAware ADS-B
Sun 01:50:56 AM 40.6190 -73.8710 221° Southwest 195 224 1,400 1,500 Climbing FlightAware ADS-B
Sun 01:51:20 AM 40.6000 -73.8870 213° Southwest 200 230 2,000 1,333 Climbing FlightAware ADS-B
Sun 01:51:32 AM 40.5890 -73.8910 195° South 205 236 2,200 1,171 Climbing FlightAware ADS-B
Sun 01:52:01 AM 40.5643 -73.8777 158° South 208 239 2,800 1,200 Climbing FlightAware ADS-B
Sun 01:52:07 AM 40.5615 -73.8713 120° Southeast 208 239 2,900 667 Climbing FlightAware ADS-B
Sun 01:52:10 AM 40.5605 -73.8676 110° East 209 241 2,900 1,000 Level FlightAware ADS-B
Sun 01:52:13 AM 40.5597 -73.8636 105° East 211 243 3,000 1,091 Climbing FlightAware ADS-B
Sun 01:52:21 AM 40.5593 -73.8542 93° East 212 244 3,100 800 Climbing FlightAware ADS-B
Sun 01:52:28 AM 40.5604 -73.8447 81° East 217 250 3,200 720 Climbing FlightAware ADS-B
Sun 01:52:46 AM 40.5643 -73.8199 78° East 229 264 3,400 875 Climbing FlightAware ADS-B
Sun 01:53:16 AM 40.5720 -73.7780 76° East 251 289 3,900 1,043 Climbing FlightAware ADS-B
Sun 01:53:32 AM 40.5780 -73.7550 71° East 261 300 4,200 1,000 Climbing FlightAware ADS-B
Sun 01:53:40 AM 40.5840 -73.7440 54° Northeast 268 308 4,300 1,200 Climbing FlightAware ADS-B
Sun 01:53:52 AM 40.5930 -73.7290 52° Northeast 275 316 4,600 1,500 Climbing FlightAware ADS-B
Sun 01:54:12 AM 40.6110 -73.7050 45° Northeast 290 334 5,100 1,909 Climbing FlightAware ADS-B
Sun 01:54:36 AM 40.6390 -73.6810 33° Northeast 291 335 6,000 2,400 Climbing FlightAware ADS-B
Sun 01:54:47 AM 40.6523 -73.6704 31° Northeast 291 335 6,500 2,372 Climbing FlightAware ADS-B
Sun 01:55:19 AM 40.6899 -73.6419 30° Northeast 296 341 7,700 2,250 Climbing FlightAware ADS-B
Sun 01:55:35 AM 40.7093 -73.6277 29° Northeast 298 343 8,300 2,118 Climbing FlightAware ADS-B
Sun 01:55:53 AM 40.7313 -73.6118 29° Northeast 299 344 8,900 2,108 Climbing FlightAware ADS-B
Sun 01:56:12 AM 40.7553 -73.5942 29° Northeast 302 348 9,600 1,684 Climbing FlightAware ADS-B
Sun 01:56:50 AM 40.8025 -73.5597 29° Northeast 324 373 10,500 1,263 Climbing FlightAware ADS-B
Sun 01:57:28 AM 40.8540 -73.5230 28° Northeast 350 403 11,200 1,154 Climbing FlightAware ADS-B
Sun 01:57:42 AM 40.8743 -73.5073 30° Northeast 360 414 11,500 1,200 Climbing FlightAware ADS-B
Sun 01:58:33 AM 40.9527 -73.4490 29° Northeast 395 455 12,500 1,467 Climbing FlightAware ADS-B
Sun 01:59:12 AM 41.0130 -73.4060 28° Northeast 404 465 13,700 2,063 Climbing FlightAware ADS-B
Sun 01:59:37 AM 41.0578 -73.3730 29° Northeast 401 461 14,700 2,105 Climbing FlightAware ADS-B
Sun 02:00:09 AM 41.1111 -73.3341 29° Northeast 410 472 15,700 2,049 Climbing FlightAware ADS-B
Sun 02:00:18 AM 41.1272 -73.3216 30° Northeast 418 481 16,100 2,308 Climbing FlightAware ADS-B
Sun 02:00:48 AM 41.1726 -73.2733 39° Northeast 424 488 17,200 1,895 Climbing FlightAware ADS-B
Sun 02:01:34 AM 41.2260 -73.1810 52° Northeast 435 501 18,500 1,725 Climbing FlightAware ADS-B
Sun 02:02:08 AM 41.2710 -73.1090 50° Northeast 442 509 19,500 1,750 Climbing FlightAware ADS-B
Sun 02:02:46 AM 41.3180 -73.0310 51° Northeast 445 512 20,600 1,714 Climbing FlightAware ADS-B
Sun 02:03:18 AM 41.3620 -72.9620 50° Northeast 449 517 21,500 1,739 Climbing FlightAware ADS-B
Sun 02:03:55 AM 41.4132 -72.8785 51° Northeast 453 521 22,600 1,629 Climbing FlightAware ADS-B
Sun 02:04:28 AM 41.4570 -72.8080 50° Northeast 457 526 23,400 1,457 Climbing FlightAware ADS-B
Sun 02:05:05 AM 41.5060 -72.7270 51° Northeast 462 532 24,300 1,317 Climbing FlightAware ADS-B
Sun 02:05:50 AM 41.5682 -72.6259 51° Northeast 470 541 25,200 1,200 Climbing FlightAware ADS-B
Sun 02:06:20 AM 41.6100 -72.5577 51° Northeast 474 545 25,800 1,164 Climbing FlightAware ADS-B
Sun 02:06:57 AM 41.6600 -72.4760 51° Northeast 477 549 26,500 1,099 Climbing FlightAware ADS-B
Sun 02:07:31 AM 41.7080 -72.3990 50° Northeast 483 556 27,100 1,200 Climbing FlightAware ADS-B
Sun 02:08:07 AM 41.7610 -72.3130 50° Northeast 484 557 27,900 1,412 Climbing FlightAware ADS-B
Sun 02:08:39 AM 41.8060 -72.2380 51° Northeast 480 552 28,700 1,478 Climbing FlightAware ADS-B
Sun 02:09:16 AM 41.8570 -72.1540 51° Northeast 477 549 29,600 1,500 Climbing FlightAware ADS-B
Sun 02:09:51 AM 41.9060 -72.0740 51° Northeast 474 545 30,500 1,183 Climbing FlightAware ADS-B
Sun 02:10:27 AM 41.9570 -71.9910 50° Northeast 471 542 31,000 441 Climbing FlightAware ADS-B
Sun 02:10:59 AM 42.0000 -71.9180 52° Northeast 471 542 31,000  Level FlightAware ADS-B
Sun 02:11:35 AM 42.0490 -71.8360 51° Northeast 472 543 31,000  Level FlightAware ADS-B
Sun 02:12:11 AM 42.0990 -71.7540 51° Northeast 473 544 31,000  Level FlightAware ADS-B
Sun 02:12:47 AM 42.1480 -71.6710 51° Northeast 475 547 31,000  Level FlightAware ADS-B
Sun 02:13:20 AM 42.1930 -71.5960 51° Northeast 476 548 31,000  Level FlightAware ADS-B
Sun 02:13:55 AM 42.2420 -71.5130 51° Northeast 476 548 31,000  Level FlightAware ADS-B
Sun 02:14:31 AM 42.2920 -71.4290 51° Northeast 476 548 31,000  Level FlightAware ADS-B
Sun 02:15:07 AM 42.3400 -71.3480 51° Northeast 476 548 31,000  Level FlightAware ADS-B
Sun 02:15:31 AM 42.3740 -71.2900 52° Northeast 477 549 31,000  Level FlightAware ADS-B
Sun 02:16:07 AM 42.4220 -71.2090 51° Northeast 477 549 31,000  Level FlightAware ADS-B
Sun 02:16:43 AM 42.4720 -71.1220 52° Northeast 477 549 31,000  Level FlightAware ADS-B
Sun 02:17:19 AM 42.5230 -71.0360 51° Northeast 477 549 31,000  Level FlightAware ADS-B
Sun 02:17:55 AM 42.5720 -70.9510 52° Northeast 478 550 31,000  Level FlightAware ADS-B
Sun 02:18:27 AM 42.6140 -70.8770 52° Northeast 480 552 31,000  Level FlightAware ADS-B
Sun 02:19:03 AM 42.6650 -70.7900 51° Northeast 480 552 31,000  Level FlightAware ADS-B
Sun 02:19:37 AM 42.7110 -70.7100 52° Northeast 480 552 31,000  Level FlightAware ADS-B
Sun 02:20:13 AM 42.7610 -70.6230 52° Northeast 480 552 31,000  Level FlightAware ADS-B
Sun 02:20:49 AM 42.8100 -70.5370 52° Northeast 479 551 31,000  Level FlightAware ADS-B
Sun 02:21:25 AM 42.8590 -70.4530 51° Northeast 480 552 31,000  Level FlightAware ADS-B
Sun 02:21:57 AM 42.9030 -70.3760 52° Northeast 480 552 31,000  Level FlightAware ADS-B
Sun 02:22:33 AM 42.9520 -70.2910 52° Northeast 479 551 31,000  Level FlightAware ADS-B
Sun 02:23:09 AM 42.9990 -70.2070 53° Northeast 475 547 31,000  Level FlightAware ADS-B
Sun 02:23:44 AM 43.0480 -70.1210 52° Northeast 476 548 31,000  Level FlightAware ADS-B
Sun 02:24:24 AM 43.1010 -70.0280 52° Northeast 482 555 31,000  Level FlightAware ADS-B
Sun 02:24:59 AM 43.1490 -69.9440 52° Northeast 482 555 31,000  Level FlightAware ADS-B
Sun 02:25:35 AM 43.1980 -69.8560 53° Northeast 482 555 31,000  Level FlightAware ADS-B
Sun 02:26:16 AM 43.2510 -69.7620 52° Northeast 482 555 31,000  Level FlightAware ADS-B
Sun 02:26:59 AM 43.3080 -69.6590 53° Northeast 481 554 31,000  Level FlightAware ADS-B
Sun 02:27:34 AM 43.3590 -69.5670 53° Northeast 481 554 31,000  Level FlightAware ADS-B
Sun 02:28:09 AM 43.4040 -69.4870 52° Northeast 482 555 31,000  Level FlightAware ADS-B
Sun 02:28:39 AM 43.4480 -69.4070 53° Northeast 482 555 31,000  Level FlightAware ADS-B
Sun 02:29:26 AM 43.5040 -69.3080 52° Northeast 481 554 31,000  Level FlightAware ADS-B
Sun 02:30:02 AM 43.5460 -69.2340 52° Northeast 481 554 31,000  Level FlightAware ADS-B
Sun 02:30:36 AM 43.6060 -69.1200 54° Northeast 480 552 31,000  Level FlightAware ADS-B
Sun 02:31:11 AM 43.6500 -69.0410 52° Northeast 482 555 31,000  Level FlightAware ADS-B
Sun 02:32:02 AM 43.7170 -68.9170 53° Northeast 482 555 31,000  Level FlightAware ADS-B
Sun 02:32:38 AM 43.7580 -68.8420 53° Northeast 482 555 31,000  Level FlightAware ADS-B
Sun 02:33:14 AM 43.7990 -68.7660 53° Northeast 482 555 31,000  Level FlightAware ADS-B
Sun 02:33:50 AM 43.8400 -68.6900 53° Northeast 482 555 31,000  Level FlightAware ADS-B
Sun 02:34:26 AM 43.8820 -68.6150 52° Northeast 482 555 31,000  Level FlightAware ADS-B
Sun 02:35:01 AM 43.9590 -68.4690 54° Northeast 481 554 31,000  Level FlightAware ADS-B
Sun 02:35:36 AM 44.0060 -68.3810 53° Northeast 481 554 31,000  Level FlightAware ADS-B
Sun 02:36:10 AM 44.0530 -68.2940 53° Northeast 480 552 31,000  Level FlightAware ADS-B
Sun 02:36:48 AM 44.1010 -68.2030 54° Northeast 481 554 31,000  Level FlightAware ADS-B
Sun 02:37:24 AM 44.1490 -68.1130 53° Northeast 482 555 31,000  Level FlightAware ADS-B
Sun 02:37:56 AM 44.1920 -68.0320 53° Northeast 482 555 31,000  Level FlightAware ADS-B
Sun 02:38:32 AM 44.2400 -67.9420 53° Northeast 483 556 31,000  Level FlightAware ADS-B
Sun 02:39:09 AM 44.2900 -67.8470 54° Northeast 483 556 31,000  Level FlightAware ADS-B
Sun 02:39:45 AM 44.3380 -67.7570 53° Northeast 482 555 31,000  Level FlightAware ADS-B
Sun 02:40:17 AM 44.3800 -67.6760 54° Northeast 482 555 31,000  Level FlightAware ADS-B
Sun 02:40:53 AM 44.4280 -67.5850 54° Northeast 482 555 31,000  Level FlightAware ADS-B
Sun 02:41:28 AM 44.4730 -67.4990 54° Northeast 482 555 31,000  Level FlightAware ADS-B
Sun 02:42:03 AM 44.5190 -67.4090 54° Northeast 482 555 31,000  Level FlightAware ADS-B
Sun 02:42:38 AM 44.5650 -67.3210 54° Northeast 482 555 31,000  Level FlightAware ADS-B
Sun 02:43:13 AM 44.6110 -67.2310 54° Northeast 482 555 31,000  Level FlightAware ADS-B
Sun 02:43:46 AM 44.6530 -67.1490 54° Northeast 482 555 31,000  Level FlightAware ADS-B
Sun 02:44:22 AM 44.7010 -67.0570 54° Northeast 482 555 31,000  Level FlightAware ADS-B
Sun 02:44:58 AM 44.7460 -66.9690 54° Northeast 482 555 31,000  Level FlightAware ADS-B
Sun 02:45:29 AM 44.7850 -66.8930 54° Northeast 481 554 31,000  Level FlightAware ADS-B
Sun 02:46:04 AM 44.8320 -66.8000 55° Northeast 482 555 31,000  Level FlightAware ADS-B
Sun 02:46:43 AM 44.8830 -66.6990 55° Northeast 477 549 31,000  Level FlightAware ADS-B
Sun 02:47:23 AM 44.9340 -66.5990 54° Northeast 477 549 31,000  Level FlightAware ADS-B
Sun 02:47:58 AM 44.9800 -66.5100 54° Northeast 476 548 31,000  Level FlightAware ADS-B
Sun 02:48:33 AM 45.0240 -66.4210 55° Northeast 475 547 31,000  Level FlightAware ADS-B
Sun 02:49:08 AM 45.0710 -66.3290 54° Northeast 480 552 31,000  Level FlightAware ADS-B
Sun 02:49:44 AM 45.1160 -66.2400 54° Northeast 481 554 31,000  Level FlightAware ADS-B
Sun 02:50:19 AM 45.1620 -66.1450 55° Northeast 483 556 31,000  Level FlightAware ADS-B
Sun 02:50:53 AM 45.2060 -66.0580 54° Northeast 483 556 31,000  Level FlightAware ADS-B
Sun 02:51:29 AM 45.2510 -65.9650 55° Northeast 485 558 31,000  Level FlightAware ADS-B
Sun 02:52:03 AM 45.2950 -65.8750 55° Northeast 486 559 31,000  Level FlightAware ADS-B
Sun 02:52:39 AM 45.3410 -65.7820 55° Northeast 487 560 31,000  Level FlightAware ADS-B
Sun 02:53:13 AM 45.3850 -65.6920 55° Northeast 488 562 31,000  Level FlightAware ADS-B
Sun 02:53:49 AM 45.4310 -65.5970 55° Northeast 485 558 31,000  Level FlightAware ADS-B
Sun 02:54:23 AM 45.4760 -65.5050 55° Northeast 486 559 31,000  Level FlightAware ADS-B
Sun 02:55:07 AM 45.5200 -65.4110 56° Northeast 486 559 31,000  Level FlightAware ADS-B
Sun 02:55:43 AM 45.5590 -65.3300 55° Northeast 486 559 31,000  Level FlightAware ADS-B
Sun 02:56:19 AM 45.5970 -65.2490 56° Northeast 486 559 31,000  Level FlightAware ADS-B
Sun 02:56:55 AM 45.6360 -65.1670 56° Northeast 486 559 31,000  Level FlightAware ADS-B
Sun 02:57:32 AM 45.6750 -65.0830 56° Northeast 486 559 31,000  Level FlightAware ADS-B
Sun 02:58:09 AM 45.7150 -64.9990 56° Northeast 486 559 31,000  Level FlightAware ADS-B
Sun 02:58:45 AM 45.7530 -64.9170 56° Northeast 486 559 31,000  Level FlightAware ADS-B
Sun 02:59:21 AM 45.7920 -64.8360 55° Northeast 486 559 31,000  Level FlightAware ADS-B
Sun 02:59:57 AM 45.8300 -64.7540 56° Northeast 486 559 31,000  Level FlightAware ADS-B
Sun 03:00:33 AM 45.8690 -64.6720 56° Northeast 486 559 31,000  Level FlightAware ADS-B
Sun 03:01:09 AM 45.9070 -64.5900 56° Northeast 486 559 31,000  Level FlightAware ADS-B
Sun 03:01:45 AM 45.9460 -64.5080 56° Northeast 486 559 31,000  Level FlightAware ADS-B
Sun 03:02:21 AM 45.9840 -64.4260 56° Northeast 486 559 31,000  Level FlightAware ADS-B
Sun 03:02:58 AM 46.0240 -64.3410 56° Northeast 486 559 31,000  Level FlightAware ADS-B
Sun 03:03:34 AM 46.0620 -64.2590 56° Northeast 486 559 31,000  Level FlightAware ADS-B
Sun 03:04:10 AM 46.1010 -64.1770 56° Northeast 486 559 31,000 346 Level FlightAware ADS-B
Sun 03:09:21 AM 46.6390 -63.0040 56° Northeast 512 589 33,000 347 Climbing FlightAware ADS-B
Sun 03:09:56 AM 46.6780 -62.9160 57° Northeast 514 592 33,000  Level FlightAware ADS-B
Sun 03:10:31 AM 46.7290 -62.8000 57° Northeast 515 593 33,000  Level FlightAware ADS-B
Sun 03:11:16 AM 46.7810 -62.6810 57° Northeast 515 593 33,000  Level FlightAware ADS-B
Sun 03:11:52 AM 46.8210 -62.5910 57° Northeast 515 593 33,000  Level FlightAware ADS-B
Sun 03:12:25 AM 46.8740 -62.4640 59° Northeast 518 596 33,000  Level FlightAware ADS-B
Sun 03:13:03 AM 46.9220 -62.3560 57° Northeast 519 597 33,000  Level FlightAware ADS-B
Sun 03:13:40 AM 46.9630 -62.2630 57° Northeast 519 597 33,000  Level FlightAware ADS-B
Sun 03:14:15 AM 47.0170 -62.1390 57° Northeast 523 602 33,000  Level FlightAware ADS-B
Sun 03:14:51 AM 47.0630 -62.0340 57° Northeast 526 605 33,000  Level FlightAware ADS-B
Sun 03:15:28 AM 47.1040 -61.9400 57° Northeast 526 605 33,000  Level FlightAware ADS-B
Sun 03:15:59 AM 47.1530 -61.8240 58° Northeast 532 612 33,000  Level FlightAware ADS-B
Sun 03:16:31 AM 47.1940 -61.7260 58° Northeast 533 613 33,000  Level FlightAware ADS-B
Sun 03:17:11 AM 47.2450 -61.6040 58° Northeast 537 618 33,000  Level FlightAware ADS-B
Sun 03:17:39 AM 47.2820 -61.5180 58° Northeast 538 619 33,000  Level FlightAware ADS-B
Sun 03:18:19 AM 47.3350 -61.3900 59° Northeast 541 623 33,000  Level FlightAware ADS-B
Sun 03:18:55 AM 47.3820 -61.2770 58° Northeast 544 626 33,000  Level FlightAware ADS-B
Sun 03:19:31 AM 47.4300 -61.1600 59° Northeast 547 629 33,000  Level FlightAware ADS-B
Sun 03:20:03 AM 47.4720 -61.0580 59° Northeast 549 632 33,000  Level FlightAware ADS-B
Sun 03:20:41 AM 47.5160 -60.9550 58° Northeast 549 632 33,000  Level FlightAware ADS-B
Sun 03:21:17 AM 47.5570 -60.8580 58° Northeast 549 632 33,000  Level FlightAware ADS-B
Sun 03:21:53 AM 47.5980 -60.7600 58° Northeast 549 632 33,000  Level FlightAware ADS-B
Sun 03:22:29 AM 47.6390 -60.6620 58° Northeast 549 632 33,000  Level FlightAware ADS-B
Sun 03:23:05 AM 47.6800 -60.5640 58° Northeast 549 632 33,000  Level FlightAware ADS-B
Sun 03:23:41 AM 47.7220 -60.4660 57° Northeast 549 632 33,000  Level FlightAware ADS-B
Sun 03:24:18 AM 47.7640 -60.3660 58° Northeast 549 632 33,000  Level FlightAware ADS-B
Sun 03:24:52 AM 47.8030 -60.2730 58° Northeast 549 632 33,000  Level FlightAware ADS-B
Sun 03:25:28 AM 47.8440 -60.1750 58° Northeast 549 632 33,000  Level FlightAware ADS-B
Sun 03:26:04 AM 47.8850 -60.0770 58° Northeast 549 632 33,000  Level FlightAware ADS-B
Sun 03:26:41 AM 47.9950 -59.7560 63° Northeast 568 654 33,000  Level FlightAware ADS-B
Sun 03:27:16 AM 48.0430 -59.6340 59° Northeast 566 651 33,000  Level FlightAware ADS-B
Sun 03:27:56 AM 48.0960 -59.4980 60° Northeast 566 651 33,000  Level FlightAware ADS-B
Sun 03:28:26 AM 48.1350 -59.3970 60° Northeast 566 651 33,000  Level FlightAware ADS-B
Sun 03:29:01 AM 48.1810 -59.2790 60° Northeast 568 654 33,000  Level FlightAware ADS-B
Sun 03:29:41 AM 48.2340 -59.1390 60° Northeast 567 652 33,000  Level FlightAware ADS-B
Sun 03:30:10 AM 48.2720 -59.0370 61° Northeast 567 652 33,000  Level FlightAware ADS-B
Sun 03:30:46 AM 48.3150 -58.9240 60° Northeast 569 655 33,000 86 Level FlightAware ADS-B
Sun 03:31:20 AM 48.3610 -58.8020 60° Northeast 567 652 33,100 81 Climbing FlightAware ADS-B
Sun 03:32:00 AM 48.4150 -58.6590 60° Northeast 576 663 33,100  Level FlightAware ADS-B
Sun 03:32:31 AM 48.4550 -58.5520 61° Northeast 577 664 33,100 -185 Level FlightAware ADS-B
Sun 03:33:05 AM 48.5000 -58.4300 61° Northeast 576 663 32,900 -609 Descending FlightAware ADS-B
Sun 03:33:40 AM 48.5440 -58.3100 61° Northeast 558 642 32,400 -1,342 Descending FlightAware ADS-B
Sun 03:34:21 AM 48.5940 -58.1740 61° Northeast 537 618 31,200 -1,200 Descending FlightAware ADS-B
Sun 03:34:50 AM 48.6300 -58.0770 61° Northeast 519 597 31,000 -188 Descending FlightAware ADS-B
Sun 03:35:25 AM 48.6690 -57.9700 61° Northeast 517 595 31,000  Level FlightAware ADS-B
Sun 03:36:06 AM 48.7170 -57.8400 61° Northeast 519 597 31,000  Level FlightAware ADS-B
Sun 03:36:36 AM 48.7510 -57.7460 61° Northeast 521 600 31,000  Level FlightAware ADS-B
Sun 03:37:11 AM 48.7920 -57.6320 61° Northeast 522 601 31,000  Level FlightAware ADS-B
Sun 03:37:46 AM 48.8320 -57.5240 61° Northeast 524 603 31,000  Level FlightAware ADS-B
Sun 03:38:25 AM 48.8780 -57.3940 62° Northeast 524 603 31,000  Level FlightAware ADS-B
Sun 03:38:55 AM 48.9120 -57.2920 63° Northeast 525 604 31,000  Level FlightAware ADS-B
Sun 03:39:31 AM 48.9490 -57.1770 64° Northeast 528 608 31,000  Level FlightAware ADS-B
Sun 03:40:11 AM 48.9930 -57.0410 64° Northeast 531 611 31,000 83 Level FlightAware ADS-B
Sun 03:40:43 AM 49.0260 -56.9400 63° Northeast 534 615 31,100 783 Climbing FlightAware ADS-B
Sun 03:41:20 AM 49.0700 -56.8060 63° Northeast 535 616 31,900 1,083 Climbing FlightAware ADS-B
Sun 03:41:55 AM 49.1070 -56.6900 64° Northeast 538 619 32,400 818 Climbing FlightAware ADS-B
Sun 03:42:26 AM 49.1420 -56.5830 63° Northeast 541 623 32,800 646 Climbing FlightAware ADS-B
Sun 03:43:00 AM 49.1790 -56.4660 64° Northeast 551 634 33,100 162 Climbing FlightAware ADS-B
Sun 03:43:40 AM 49.2240 -56.3250 64° Northeast 552 635 33,000 -86 Descending FlightAware ADS-B
Sun 03:44:10 AM 49.2570 -56.2200 64° Northeast 552 635 33,000  Level FlightAware ADS-B
Sun 03:44:45 AM 49.2950 -56.0990 64° Northeast 552 635 33,000  Level FlightAware ADS-B
Sun 03:45:21 AM 49.3350 -55.9700 65° Northeast 551 634 33,000  Level FlightAware ADS-B
Sun 03:45:55 AM 49.3730 -55.8480 64° Northeast 551 634 33,000  Level FlightAware ADS-B
Sun 03:46:30 AM 49.4100 -55.7260 65° Northeast 550 633 33,000  Level FlightAware ADS-B
Sun 03:47:06 AM 49.4480 -55.6040 64° Northeast 548 631 33,000  Level FlightAware ADS-B
Sun 03:47:46 AM 49.4920 -55.4610 65° Northeast 545 627 33,000  Level FlightAware ADS-B
Sun 03:48:16 AM 49.5240 -55.3540 65° Northeast 544 626 33,000  Level FlightAware ADS-B
Sun 03:48:50 AM 49.5610 -55.2330 65° Northeast 542 624 33,000  Level FlightAware ADS-B
Sun 03:49:25 AM 49.5980 -55.1100 65° Northeast 541 623 33,000  Level FlightAware ADS-B
Sun 03:50:06 AM 49.6400 -54.9720 65° Northeast 540 621 33,000  Level FlightAware ADS-B
Sun 03:50:35 AM 49.6720 -54.8680 65° Northeast 539 620 33,000  Level FlightAware ADS-B
Sun 03:51:11 AM 49.7090 -54.7440 65° Northeast 540 621 33,000  Level FlightAware ADS-B
Sun 03:51:46 AM 49.7460 -54.6190 65° Northeast 546 628 33,000  Level FlightAware ADS-B
Sun 03:52:25 AM 49.7880 -54.4780 65° Northeast 547 629 33,000  Level FlightAware ADS-B
Sun 03:52:56 AM 49.8190 -54.3710 66° East 549 632 33,000  Level FlightAware ADS-B
Sun 03:53:35 AM 49.8600 -54.2320 65° Northeast 550 633 33,000  Level FlightAware ADS-B
Sun 03:54:00 AM 51.0000 -50.0000 68° East 554 638 33,000  Level ETMS Enhanced Traffic Management System
Sun 03:54:11 AM 49.8970 -54.1040 66° East 549 632 33,000  Level FlightAware ADS-B
Sun 03:54:41 AM 49.9290 -53.9940 66° East 548 631 33,000  Level FlightAware ADS-B
Sun 03:55:16 AM 49.9630 -53.8750 66° East 547 629 33,000  Level FlightAware ADS-B
Sun 03:55:55 AM 50.0050 -53.7270 66° East 548 631 33,000  Level FlightAware ADS-B
Sun 03:56:31 AM 50.0400 -53.6010 67° East 547 629 33,000  Level FlightAware ADS-B
Sun 03:57:00 AM 50.0710 -53.4920 66° East 547 629 33,000  Level FlightAware ADS-B
Sun 03:57:36 AM 50.1050 -53.3700 66° East 546 628 33,000  Level FlightAware ADS-B
Sun 03:58:11 AM 50.1400 -53.2430 67° East 546 628 33,000  Level FlightAware ADS-B
Sun 03:58:45 AM 50.1770 -53.1120 66° East 546 628 33,000  Level FlightAware ADS-B
Sun 03:59:20 AM 50.2070 -53.0010 68° East 547 629 33,000  Level FlightAware ADS-B
Sun 03:59:56 AM 50.2460 -52.8590 67° East 546 628 33,000  Level FlightAware ADS-B
Sun 04:00:35 AM 50.2820 -52.7280 67° East 546 628 33,000  Level FlightAware ADS-B
Sun 04:01:10 AM 50.3200 -52.5900 67° East 545 627 33,000  Level FlightAware ADS-B
Sun 04:01:40 AM 50.3470 -52.4920 67° East 545 627 33,000  Level FlightAware ADS-B
Sun 04:02:32 AM 50.3990 -52.2990 67° East 544 626 33,000  Level FlightAware ADS-B
Sun 04:03:25 AM 50.4440 -52.1290 67° East 543 625 33,000  Level FlightAware ADS-B
Sun 04:04:01 AM 50.4740 -52.0180 67° East 543 625 33,000  Level FlightAware ADS-B
Sun 04:04:38 AM 50.5050 -51.9030 67° East 543 625 33,000  Level FlightAware ADS-B
Sun 04:05:14 AM 50.5350 -51.7920 67° East 543 625 33,000  Level FlightAware ADS-B
Sun 04:05:50 AM 50.5650 -51.6810 67° East 543 625 33,000  Level FlightAware ADS-B
Sun 04:06:26 AM 50.5950 -51.5690 67° East 543 625 33,000  Level FlightAware ADS-B
Sun 04:07:14 AM 50.6350 -51.4210 67° East 543 625 33,000  Level FlightAware ADS-B
Sun 04:07:50 AM 50.6650 -51.3090 67° East 543 625 33,000  Level FlightAware ADS-B
Sun 04:08:26 AM 50.6950 -51.1970 67° East 543 625 33,000  Level FlightAware ADS-B
Sun 04:09:02 AM 50.7250 -51.0860 67° East 543 625 33,000  Level FlightAware ADS-B
Sun 04:09:38 AM 50.7550 -50.9740 67° East 543 625 33,000  Level FlightAware ADS-B
Sun 04:10:14 AM 50.7850 -50.8620 67° East 543 625 33,000  Level FlightAware ADS-B
Sun 04:10:50 AM 50.8150 -50.7500 67° East 543 625 33,000  Level FlightAware ADS-B
Sun 04:11:27 AM 50.8460 -50.6350 67° East 543 625 33,000  Level FlightAware ADS-B
Sun 04:12:03 AM 50.8760 -50.5230 67° East 543 625 33,000  Level FlightAware ADS-B
Sun 04:12:39 AM 50.9060 -50.4100 67° East 543 625 33,000  Level FlightAware ADS-B
Sun 04:13:00 AM 51.0000 -50.0000 68° East 567 652 33,000  Level ETMS Enhanced Traffic Management System
Sun 04:14:16 AM 51.0667 -49.6500 68° East 550 633 33,000  Level Gander Center
Sun 04:15:16 AM 51.1167 -49.4167 71° East 560 644 33,000  Level Gander Center
Sun 04:16:16 AM 51.1667 -49.1833 71° East 560 644 33,000  Level Gander Center
Sun 04:18:00 AM 51.2869 -48.7850 69° East  Level FlightAware Approximate
Sun 04:25:00 AM 51.6362 -47.2835 70° East  Level FlightAware Approximate
Sun 04:26:00 AM 51.6844 -47.0671 70° East  Level FlightAware Approximate
Sun 04:27:00 AM 51.7323 -46.8502 70° East  Level FlightAware Approximate
Sun 04:28:00 AM 51.7797 -46.6329 71° East  Level FlightAware Approximate
Sun 04:29:00 AM 51.8267 -46.4151 71° East  Level FlightAware Approximate
Sun 04:30:00 AM 51.8733 -46.1968 71° East  Level FlightAware Approximate
Sun 04:31:00 AM 51.9195 -45.9781 71° East  Level FlightAware Approximate
Sun 04:32:00 AM 51.9653 -45.7590 71° East  Level FlightAware Approximate
Sun 04:33:00 AM 52.0107 -45.5394 71° East  Level FlightAware Approximate
Sun 04:34:00 AM 52.0557 -45.3193 72° East  Level FlightAware Approximate
Sun 04:35:00 AM 52.1002 -45.0988 73° East  Level FlightAware Approximate
Sun 04:36:00 AM 52.1428 -44.8771 73° East  Level FlightAware Approximate
Sun 04:37:00 AM 52.1849 -44.6549 73° East  Level FlightAware Approximate
Sun 04:38:00 AM 52.2266 -44.4323 73° East  Level FlightAware Approximate
Sun 04:39:00 AM 52.2679 -44.2093 73° East  Level FlightAware Approximate
Sun 04:40:00 AM 52.3087 -43.9858 73° East  Level FlightAware Approximate
Sun 04:41:00 AM 52.3506 -43.7627 72° East  Level FlightAware Approximate
Sun 04:42:00 AM 52.3941 -43.5402 72° East  Level FlightAware Approximate
Sun 04:43:00 AM 52.4373 -43.3173 72° East  Level FlightAware Approximate
Sun 04:44:00 AM 52.4800 -43.0939 72° East  Level FlightAware Approximate
Sun 04:45:00 AM 52.5221 -42.8700 73° East  Level FlightAware Approximate
Sun 04:46:00 AM 52.5625 -42.6450 73° East  Level FlightAware Approximate
Sun 04:47:00 AM 52.6024 -42.4197 74° East  Level FlightAware Approximate
Sun 04:48:00 AM 52.6419 -42.1939 74° East  Level FlightAware Approximate
Sun 04:49:00 AM 52.6810 -41.9677 74° East  Level FlightAware Approximate
Sun 04:50:00 AM 52.7196 -41.7411 74° East  Level FlightAware Approximate
Sun 04:51:00 AM 52.7578 -41.5141 74° East  Level FlightAware Approximate
Sun 04:52:00 AM 52.7956 -41.2867 75° East  Level FlightAware Approximate
Sun 04:53:00 AM 52.8329 -41.0589 75° East  Level FlightAware Approximate
Sun 04:54:00 AM 52.8699 -40.8307 75° East  Level FlightAware Approximate
Sun 04:54:00 AM 53.0000 -40.0000 67° East 558 642 33,000  Level ETMS Enhanced Traffic Management System
Sun 04:55:00 AM 52.9064 -40.6017 75° East  Level FlightAware Approximate
Sun 04:56:00 AM 52.9425 -40.3724 75° East  Level FlightAware Approximate
Sun 04:57:00 AM 52.9781 -40.1427 75° East  Level FlightAware Approximate
Sun 04:58:00 AM 53.0202 -39.9168 68° East  Level FlightAware Approximate
Sun 04:59:00 AM 53.0732 -39.6964 68° East  Level FlightAware Approximate
Sun 05:00:00 AM 53.4653 -38.0788 69° East 558 642 33,000  Level FlightAware Transoceanic
Sun 05:01:00 AM 53.5212 -37.8358 69° East 558 642 33,000  Level FlightAware Transoceanic
Sun 05:02:00 AM 53.5767 -37.5920 69° East 558 642 33,000  Level FlightAware Transoceanic
Sun 05:03:00 AM 53.6317 -37.3477 69° East 558 642 33,000  Level FlightAware Transoceanic
Sun 05:04:00 AM 53.6862 -37.1027 70° East 558 642 33,000  Level FlightAware Transoceanic
Sun 05:05:00 AM 53.7401 -36.8571 70° East 558 642 33,000  Level FlightAware Transoceanic
Sun 05:06:00 AM 53.7936 -36.6109 70° East 558 642 33,000  Level FlightAware Transoceanic
Sun 05:07:00 AM 53.8466 -36.3640 70° East 558 642 33,000  Level FlightAware Transoceanic
Sun 05:08:00 AM 53.8990 -36.1165 70° East 558 642 33,000  Level FlightAware Transoceanic
Sun 05:09:00 AM 53.9510 -35.8684 71° East 558 642 33,000  Level FlightAware Transoceanic
Sun 05:10:00 AM 54.0024 -35.6197 71° East 558 642 33,000  Level FlightAware Transoceanic
Sun 05:11:00 AM 54.0533 -35.3704 71° East 558 642 33,000  Level FlightAware Transoceanic
Sun 05:12:00 AM 54.1037 -35.1204 71° East 558 642 33,000  Level FlightAware Transoceanic
Sun 05:13:00 AM 54.1536 -34.8699 71° East 558 642 33,000  Level FlightAware Transoceanic
Sun 05:14:00 AM 54.2030 -34.6187 72° East 558 642 33,000  Level FlightAware Transoceanic
Sun 05:15:00 AM 54.2519 -34.3670 72° East 558 642 33,000  Level FlightAware Transoceanic
Sun 05:16:00 AM 54.3002 -34.1146 72° East 558 642 33,000  Level FlightAware Transoceanic
Sun 05:17:00 AM 54.3479 -33.8617 72° East 558 642 33,000  Level FlightAware Transoceanic
Sun 05:18:00 AM 54.3952 -33.6082 72° East 558 642 33,000  Level FlightAware Transoceanic
Sun 05:19:00 AM 54.4419 -33.3541 73° East 558 642 33,000  Level FlightAware Transoceanic
Sun 05:20:00 AM 54.4881 -33.0994 73° East 558 642 33,000  Level FlightAware Transoceanic
Sun 05:21:00 AM 54.5338 -32.8442 73° East 558 642 33,000  Level FlightAware Transoceanic
Sun 05:22:00 AM 54.5789 -32.5884 73° East 558 642 33,000  Level FlightAware Transoceanic
Sun 05:23:00 AM 54.6235 -32.3320 73° East 558 642 33,000  Level FlightAware Transoceanic
Sun 05:24:00 AM 54.6675 -32.0750 74° East 558 642 33,000  Level FlightAware Transoceanic
Sun 05:25:00 AM 54.7110 -31.8176 74° East 558 642 33,000  Level FlightAware Transoceanic
Sun 05:26:00 AM 54.7539 -31.5595 74° East 558 642 33,000  Level FlightAware Transoceanic
Sun 05:27:00 AM 54.7963 -31.3009 74° East 558 642 33,000  Level FlightAware Transoceanic
Sun 05:28:00 AM 54.8382 -31.0418 74° East 558 642 33,000  Level FlightAware Transoceanic
Sun 05:29:00 AM 54.8795 -30.7821 75° East 558 642 33,000  Level FlightAware Transoceanic
Sun 05:30:00 AM 54.9202 -30.5219 75° East 558 642 33,000  Level FlightAware Transoceanic
Sun 05:31:00 AM 54.9604 -30.2612 75° East 558 642 33,000  Level FlightAware Transoceanic
Sun 05:32:00 AM 54.9968 -30.0209 75° East  Level FlightAware Approximate
Sun 05:33:00 AM 55.0328 -29.7802 75° East  Level FlightAware Approximate
Sun 05:34:00 AM 54.9882 -29.7956 96° East  Level FlightAware Approximate
Sun 05:35:00 AM 54.9734 -29.5484 96° East  Level FlightAware Approximate
Sun 05:36:00 AM 54.9581 -29.3013 96° East  Level FlightAware Approximate
Sun 05:36:00 AM 55.0000 -30.0000 96° East 529 609 33,000  Level ETMS Enhanced Traffic Management System
Sun 05:37:00 AM 54.9424 -29.0544 96° East  Level FlightAware Approximate
Sun 05:38:00 AM 54.9261 -28.8078 96° East  Level FlightAware Approximate
Sun 05:39:00 AM 54.9094 -28.5613 97° East  Level FlightAware Approximate
Sun 05:40:00 AM 54.8921 -28.3150 97° East  Level FlightAware Approximate
Sun 05:41:00 AM 54.8743 -28.0690 97° East  Level FlightAware Approximate
Sun 05:42:00 AM 54.8279 -27.4569 98° East 529 609 33,000  Level FlightAware Transoceanic
Sun 05:43:00 AM 54.8078 -27.2039 98° East 529 609 33,000  Level FlightAware Transoceanic
Sun 05:44:00 AM 54.7872 -26.9511 98° East 529 609 33,000  Level FlightAware Transoceanic
Sun 05:45:00 AM 54.7660 -26.6985 98° East 529 609 33,000  Level FlightAware Transoceanic
Sun 05:46:00 AM 54.7443 -26.4463 99° East 529 609 33,000  Level FlightAware Transoceanic
Sun 05:47:00 AM 54.7221 -26.1943 99° East 529 609 33,000  Level FlightAware Transoceanic
Sun 05:48:00 AM 54.6993 -25.9426 99° East 529 609 33,000  Level FlightAware Transoceanic
Sun 05:49:00 AM 54.6761 -25.6912 99° East 529 609 33,000  Level FlightAware Transoceanic
Sun 05:50:00 AM 54.6523 -25.4400 99° East 529 609 33,000  Level FlightAware Transoceanic
Sun 05:51:00 AM 54.6280 -25.1892 100° East 529 609 33,000  Level FlightAware Transoceanic
Sun 05:52:00 AM 54.6032 -24.9387 100° East 529 609 33,000  Level FlightAware Transoceanic
Sun 05:53:00 AM 54.5779 -24.6884 100° East 529 609 33,000  Level FlightAware Transoceanic
Sun 05:54:00 AM 54.5520 -24.4385 100° East 529 609 33,000  Level FlightAware Transoceanic
Sun 05:55:00 AM 54.5257 -24.1889 100° East 529 609 33,000  Level FlightAware Transoceanic
Sun 05:56:00 AM 54.4988 -23.9397 101° East 529 609 33,000  Level FlightAware Transoceanic
Sun 05:57:00 AM 54.4714 -23.6908 101° East 529 609 33,000  Level FlightAware Transoceanic
Sun 05:58:00 AM 54.4435 -23.4422 101° East 529 609 33,000  Level FlightAware Transoceanic
Sun 05:59:00 AM 54.4151 -23.1939 101° East 529 609 33,000  Level FlightAware Transoceanic
Sun 06:00:00 AM 54.3862 -22.9460 101° East 529 609 33,000  Level FlightAware Transoceanic
Sun 06:01:00 AM 54.3567 -22.6984 102° East 529 609 33,000  Level FlightAware Transoceanic
Sun 06:02:00 AM 54.3268 -22.4512 102° East 529 609 33,000  Level FlightAware Transoceanic
Sun 06:03:00 AM 54.2964 -22.2044 102° East 529 609 33,000  Level FlightAware Transoceanic
Sun 06:04:00 AM 54.2654 -21.9579 102° East 529 609 33,000  Level FlightAware Transoceanic
Sun 06:05:00 AM 54.2340 -21.7118 102° East 529 609 33,000  Level FlightAware Transoceanic
Sun 06:06:00 AM 54.2021 -21.4661 103° East 529 609 33,000  Level FlightAware Transoceanic
Sun 06:07:00 AM 54.1696 -21.2208 103° East 529 609 33,000  Level FlightAware Transoceanic
Sun 06:08:00 AM 54.1367 -20.9758 103° East 529 609 33,000  Level FlightAware Transoceanic
Sun 06:09:00 AM 54.1033 -20.7313 103° East 529 609 33,000  Level FlightAware Transoceanic
Sun 06:10:00 AM 54.0693 -20.4871 103° East 529 609 33,000  Level FlightAware Transoceanic
Sun 06:11:00 AM 54.0349 -20.2433 104° East 529 609 33,000  Level FlightAware Transoceanic
Sun 06:12:00 AM 54.0011 -20.0075 104° East  Level FlightAware Approximate
Sun 06:13:00 AM 53.9668 -19.7720 104° East  Level FlightAware Approximate
Sun 06:14:00 AM 53.9392 -19.7978 117° Southeast  Level FlightAware Approximate
Sun 06:15:00 AM 53.8739 -19.5825 117° Southeast  Level FlightAware Approximate
Sun 06:16:00 AM 53.8082 -19.3679 117° Southeast  Level FlightAware Approximate
Sun 06:17:00 AM 53.7421 -19.1539 118° Southeast  Level FlightAware Approximate
Sun 06:18:00 AM 53.6758 -18.9410 118° Southeast  Level FlightAware Approximate
Sun 06:19:00 AM 53.6091 -18.7288 118° Southeast  Level FlightAware Approximate
Sun 06:20:00 AM 53.5426 -18.5167 118° Southeast  Level FlightAware Approximate
Sun 06:21:00 AM 53.4759 -18.3052 118° Southeast  Level FlightAware Approximate
Sun 06:22:00 AM 53.4088 -18.0943 118° Southeast  Level FlightAware Approximate
Sun 06:23:00 AM 53.3413 -17.8841 118° Southeast  Level FlightAware Approximate
Sun 06:24:00 AM 53.2734 -17.6746 118° Southeast  Level FlightAware Approximate
Sun 06:25:00 AM 53.2052 -17.4657 119° Southeast  Level FlightAware Approximate
Sun 06:26:00 AM 53.1373 -17.2569 118° Southeast  Level FlightAware Approximate
Sun 06:27:00 AM 53.0691 -17.0487 119° Southeast  Level FlightAware Approximate
Sun 06:28:00 AM 53.0005 -16.8411 119° Southeast  Level FlightAware Approximate
Sun 06:29:00 AM 52.9316 -16.6342 119° Southeast  Level FlightAware Approximate
Sun 06:30:00 AM 52.8624 -16.4279 119° Southeast  Level FlightAware Approximate
Sun 06:31:00 AM 52.7927 -16.2224 119° Southeast  Level FlightAware Approximate
Sun 06:32:00 AM 52.7228 -16.0174 119° Southeast  Level FlightAware Approximate
Sun 06:33:00 AM 52.6524 -15.8131 120° Southeast  Level FlightAware Approximate
Sun 06:34:00 AM 52.5817 -15.6095 120° Southeast  Level FlightAware Approximate
Sun 06:35:00 AM 52.5107 -15.4066 120° Southeast  Level FlightAware Approximate
Sun 06:36:00 AM 52.4393 -15.2043 120° Southeast  Level FlightAware Approximate
Sun 06:36:08 AM 53.9460 -14.2520 120° Southeast 522 601 33,000  Level FlightAware ADS-B
Sun 06:36:23 AM 53.9260 -14.1970 122° Southeast 523 602 33,000  Level FlightAware ADS-B
Sun 06:37:08 AM 53.8540 -14.0730 135° Southeast 519 597 33,000  Level FlightAware ADS-B
Sun 06:37:43 AM 53.7920 -13.9750 137° Southeast 525 604 33,000  Level FlightAware ADS-B
Sun 06:38:21 AM 53.7340 -13.8840 137° Southeast 525 604 33,000  Level FlightAware ADS-B
Sun 06:38:53 AM 53.6640 -13.7750 137° Southeast 524 603 33,000  Level FlightAware ADS-B
Sun 06:39:43 AM 53.5730 -13.6360 138° Southeast 524 603 33,000  Level FlightAware ADS-B
Sun 06:40:23 AM 53.5040 -13.5290 137° Southeast 524 603 33,000  Level FlightAware ADS-B
Sun 06:40:58 AM 53.4390 -13.4320 138° Southeast 518 596 33,000  Level FlightAware ADS-B
Sun 06:41:34 AM 53.3780 -13.3410 138° Southeast 518 596 33,000  Level FlightAware ADS-B
Sun 06:42:09 AM 53.3130 -13.2440 138° Southeast 523 602 33,000  Level FlightAware ADS-B
Sun 06:42:45 AM 53.2470 -13.1450 138° Southeast 524 603 33,000  Level FlightAware ADS-B
Sun 06:43:20 AM 53.1840 -13.0500 138° Southeast 525 604 33,000  Level FlightAware ADS-B
Sun 06:44:15 AM 53.0960 -12.9150 137° Southeast 526 605 33,000  Level FlightAware ADS-B
Sun 06:44:51 AM 53.0300 -12.8160 138° Southeast 526 605 33,000  Level FlightAware ADS-B
Sun 06:45:23 AM 52.9650 -12.7210 139° Southeast 450 518 33,000  Level FlightAware ADS-B
Sun 06:46:20 AM 52.8610 -12.5650 138° Southeast 525 604 33,000  Level FlightAware ADS-B
Sun 06:46:53 AM 52.8020 -12.4760 138° Southeast 525 604 33,000  Level FlightAware ADS-B
Sun 06:47:30 AM 52.7340 -12.3730 137° Southeast 525 604 33,000  Level FlightAware ADS-B
Sun 06:48:05 AM 52.6710 -12.2760 137° Southeast 525 604 33,000  Level FlightAware ADS-B
Sun 06:48:40 AM 52.6100 -12.1830 137° Southeast 526 605 33,000  Level FlightAware ADS-B
Sun 06:49:15 AM 52.5460 -12.0850 137° Southeast 525 604 33,000  Level FlightAware ADS-B
Sun 06:50:04 AM 52.4650 -11.9630 137° Southeast 525 604 33,000  Level FlightAware ADS-B
Sun 06:50:48 AM 52.3800 -11.8380 138° Southeast 524 603 33,000  Level FlightAware ADS-B
Sun 06:51:18 AM 52.3320 -11.7680 138° Southeast 518 596 33,000  Level FlightAware ADS-B
Sun 06:51:58 AM 52.2580 -11.6600 138° Southeast 518 596 33,000  Level FlightAware ADS-B
Sun 06:52:34 AM 52.1930 -11.5670 139° Southeast 518 596 33,000  Level FlightAware ADS-B
Sun 06:53:15 AM 52.1120 -11.4520 139° Southeast 517 595 33,000  Level FlightAware ADS-B
Sun 06:53:55 AM 52.0410 -11.3520 139° Southeast 517 595 33,000  Level FlightAware ADS-B
Sun 06:54:30 AM 51.9790 -11.2650 139° Southeast 517 595 33,000  Level FlightAware ADS-B
Sun 06:55:08 AM 51.9140 -11.1750 139° Southeast 517 595 33,000  Level FlightAware ADS-B
Sun 06:55:38 AM 51.8590 -11.0980 139° Southeast 515 593 33,000  Level FlightAware ADS-B
Sun 06:56:13 AM 51.7890 -11.0000 139° Southeast 515 593 33,000  Level FlightAware ADS-B
Sun 06:56:53 AM 51.7180 -10.9020 139° Southeast 515 593 33,000  Level FlightAware ADS-B
Sun 06:57:23 AM 51.6650 -10.8300 140° Southeast 515 593 33,000 176 Level FlightAware ADS-B
Sun 06:58:01 AM 51.5900 -10.7260 139° Southeast 517 595 33,200 441 Climbing FlightAware ADS-B
Sun 06:58:31 AM 51.5350 -10.6510 140° Southeast 516 594 33,500 917 Climbing FlightAware ADS-B
Sun 06:59:13 AM 51.4570 -10.5450 140° Southeast 520 598 34,300 1,167 Climbing FlightAware ADS-B
Sun 06:59:43 AM 51.4020 -10.4700 140° Southeast 519 597 34,900 1,164 Climbing FlightAware ADS-B
Sun 07:00:20 AM 51.3350 -10.3790 140° Southeast 521 600 35,600 1,063 Climbing FlightAware ADS-B
Sun 07:01:02 AM 51.2620 -10.2800 140° Southeast 514 592 36,300 1,013 Climbing FlightAware ADS-B
Sun 07:01:37 AM 51.1930 -10.1860 139° Southeast 518 596 36,900 583 Climbing FlightAware ADS-B
Sun 07:02:14 AM 51.1270 -10.0990 140° Southeast 520 598 37,000 86 Climbing FlightAware ADS-B
Sun 07:02:47 AM 51.0660 -10.0170 140° Southeast 520 598 37,000  Level FlightAware ADS-B
Sun 07:03:23 AM 51.0010 -9.9310 140° Southeast 520 598 37,000  Level FlightAware ADS-B
Sun 07:03:55 AM 50.9410 -9.8520 140° Southeast 520 598 37,000  Level FlightAware ADS-B
Sun 07:04:33 AM 50.8720 -9.7600 140° Southeast 520 598 37,000  Level FlightAware ADS-B
Sun 07:05:07 AM 50.8130 -9.6830 140° Southeast 520 598 37,000  Level FlightAware ADS-B
Sun 07:05:47 AM 50.7350 -9.5820 141° Southeast 522 601 37,000  Level FlightAware ADS-B
Sun 07:06:27 AM 50.6590 -9.4830 140° Southeast 522 601 37,000  Level FlightAware ADS-B
Sun 07:07:07 AM 50.5860 -9.3870 140° Southeast 523 602 37,000  Level FlightAware ADS-B
Sun 07:07:43 AM 50.5160 -9.2970 141° Southeast 524 603 37,000  Level FlightAware ADS-B
Sun 07:08:18 AM 50.4550 -9.2180 140° Southeast 541 623 37,000  Level FlightAware ADS-B
Sun 07:08:48 AM 50.3970 -9.1440 141° Southeast 524 603 37,000  Level FlightAware ADS-B
Sun 07:09:28 AM 50.3260 -9.0530 141° Southeast 524 603 37,000  Level FlightAware ADS-B
Sun 07:10:04 AM 50.2530 -8.9600 141° Southeast 524 603 37,000  Level FlightAware ADS-B
Sun 07:10:38 AM 50.1855 -8.8482 141° Southeast 498 573 37,000  Level FlightAware UK
Sun 07:10:39 AM 50.1860 -8.8750 141° Southeast 525 604 37,000  Level FlightAware ADS-B
Sun 07:11:07 AM 50.1340 -8.8100 141° Southeast 525 604 37,000  Level FlightAware ADS-B
Sun 07:11:38 AM 50.0735 -8.7063 141° Southeast 496 571 37,000  Level FlightAware UK
Sun 07:11:47 AM 50.0560 -8.7100 141° Southeast 526 605 37,000  Level FlightAware ADS-B
Sun 07:12:23 AM 49.9890 -8.6270 141° Southeast 526 605 37,000  Level FlightAware ADS-B
Sun 07:12:59 AM 49.9220 -8.5430 141° Southeast 527 606 37,000  Level FlightAware ADS-B
Sun 07:13:31 AM 49.8610 -8.4660 141° Southeast 527 606 37,000  Level FlightAware ADS-B
Sun 07:14:08 AM 49.7889 -8.3520 141° Southeast 498 573 37,000  Level FlightAware UK
Sun 07:14:15 AM 49.7760 -8.3620 141° Southeast 528 608 37,000  Level FlightAware ADS-B
Sun 07:14:47 AM 49.7140 -8.2860 142° Southeast 528 608 37,000  Level FlightAware ADS-B
Sun 07:15:38 AM 49.6163 -8.1411 142° Southeast 496 571 37,000  Level FlightAware UK
Sun 07:15:41 AM 49.6110 -8.1600 142° Southeast 529 609 37,000  Level FlightAware ADS-B
Sun 07:16:13 AM 49.5490 -8.0830 141° Southeast 529 609 37,000  Level FlightAware ADS-B
Sun 07:16:49 AM 49.5000 -7.9770 125° Southeast 518 596 37,000  Level FlightAware ADS-B
Sun 07:17:25 AM 49.4760 -7.8490 106° East 513 590 37,000  Level FlightAware ADS-B
Sun 07:18:01 AM 49.4590 -7.7200 101° East 513 590 37,000  Level FlightAware ADS-B
Sun 07:18:33 AM 49.4450 -7.6110 101° East 514 592 37,000  Level FlightAware ADS-B
Sun 07:19:09 AM 49.4130 -7.4850 111° Southeast 527 606 37,000  Level FlightAware ADS-B
Sun 07:19:45 AM 49.3730 -7.3670 117° Southeast 529 609 37,000  Level FlightAware ADS-B
Sun 07:20:21 AM 49.3330 -7.2430 116° Southeast 530 610 37,000  Level FlightAware ADS-B
Sun 07:20:49 AM 49.3020 -7.1500 117° Southeast 531 611 37,000  Level FlightAware ADS-B
Sun 07:21:29 AM 49.2560 -7.0180 118° Southeast 534 615 37,000  Level FlightAware ADS-B
Sun 07:22:01 AM 49.2170 -6.9090 119° Southeast 536 617 37,000  Level FlightAware ADS-B
Sun 07:22:39 AM 49.1720 -6.7579 119° Southeast 500 575 37,000  Level FlightAware UK
Sun 07:22:39 AM 49.1750 -6.7880 119° Southeast 537 618 37,000  Level FlightAware ADS-B
Sun 07:23:09 AM 49.1363 -6.6576 119° Southeast 496 571 37,000  Level FlightAware UK
Sun 07:23:12 AM 49.1360 -6.6770 119° Southeast 537 618 37,000  Level FlightAware ADS-B
Sun 07:23:47 AM 49.0940 -6.5570 118° Southeast 539 620 37,000  Level FlightAware ADS-B
Sun 07:24:23 AM 49.0510 -6.4360 118° Southeast 543 625 37,000  Level FlightAware ADS-B
Sun 07:24:59 AM 49.0080 -6.3160 119° Southeast 545 627 37,000  Level FlightAware ADS-B
Sun 07:25:33 AM 48.9670 -6.2020 119° Southeast 548 631 37,000  Level FlightAware ADS-B
Sun 07:26:07 AM 48.9240 -6.0850 119° Southeast 550 633 37,000  Level FlightAware ADS-B
Sun 07:26:09 AM 48.9206 -6.0536 119° Southeast 500 575 37,000  Level FlightAware UK
Sun 07:26:39 AM 48.8837 -5.9520 119° Southeast 500 575 37,000  Level FlightAware UK
Sun 07:26:41 AM 48.8820 -5.9700 119° Southeast 552 635 37,000  Level FlightAware ADS-B
Sun 07:27:21 AM 48.8320 -5.8350 119° Southeast 554 638 37,000  Level FlightAware ADS-B
Sun 07:27:53 AM 48.7920 -5.7250 119° Southeast 554 638 37,000  Level FlightAware ADS-B
Sun 07:28:29 AM 48.7460 -5.6010 119° Southeast 555 639 37,000  Level FlightAware ADS-B
Sun 07:29:04 AM 48.7040 -5.4880 119° Southeast 554 638 37,000  Level FlightAware ADS-B
Sun 07:29:39 AM 48.6565 -5.3407 119° Southeast 504 580 37,000  Level FlightAware UK
Sun 07:29:41 AM 48.6560 -5.3610 119° Southeast 553 636 37,000  Level FlightAware ADS-B
Sun 07:30:13 AM 48.6160 -5.2550 120° Southeast 552 635 37,000  Level FlightAware ADS-B
Sun 07:30:49 AM 48.5700 -5.1330 120° Southeast 549 632 37,000  Level FlightAware ADS-B
Sun 07:31:25 AM 48.5250 -5.0150 120° Southeast 547 629 37,000  Level FlightAware ADS-B
Sun 07:32:01 AM 48.4790 -4.8950 120° Southeast 545 627 37,000  Level FlightAware ADS-B
Sun 07:32:33 AM 48.4390 -4.7900 120° Southeast 544 626 37,000  Level FlightAware ADS-B
Sun 07:33:07 AM 48.3960 -4.6780 120° Southeast 543 625 37,000  Level FlightAware ADS-B
Sun 07:33:45 AM 48.3461 -4.5249 120° Southeast 502 578 37,000  Level FlightAware UK
Sun 07:33:45 AM 48.3490 -4.5550 120° Southeast 542 624 37,000  Level FlightAware ADS-B
Sun 07:34:15 AM 48.3083 -4.4264 120° Southeast 504 580 37,000  Level FlightAware UK
Sun 07:34:21 AM 48.3030 -4.4360 120° Southeast 541 623 37,000  Level FlightAware ADS-B
Sun 07:34:51 AM 48.2633 -4.3095 120° Southeast 504 580 37,000  Level FlightAware UK
Sun 07:34:53 AM 48.2640 -4.3350 120° Southeast 538 619 37,000  Level FlightAware ADS-B
Sun 07:35:29 AM 48.2190 -4.2180 120° Southeast 537 618 37,000  Level FlightAware ADS-B
Sun 07:36:01 AM 48.1790 -4.1140 120° Southeast 536 617 37,000  Level FlightAware ADS-B
Sun 07:36:41 AM 48.1290 -3.9850 120° Southeast 536 617 37,000  Level FlightAware ADS-B
Sun 07:37:13 AM 48.0890 -3.8850 121° Southeast 535 616 37,000  Level FlightAware ADS-B
Sun 07:37:49 AM 48.0440 -3.7710 121° Southeast 534 615 37,000  Level FlightAware ADS-B
Sun 07:38:25 AM 47.9990 -3.6580 121° Southeast 532 612 37,000  Level FlightAware ADS-B
Sun 07:39:01 AM 47.9520 -3.5430 121° Southeast 531 611 37,000  Level FlightAware ADS-B
Sun 07:39:33 AM 47.9150 -3.4440 119° Southeast 529 609 37,000  Level FlightAware ADS-B
Sun 07:40:09 AM 47.8710 -3.3250 119° Southeast 528 608 37,000  Level FlightAware ADS-B
Sun 07:40:45 AM 47.8290 -3.2130 119° Southeast 526 605 37,000  Level FlightAware ADS-B
Sun 07:41:17 AM 47.7910 -3.1120 119° Southeast 525 604 37,000  Level FlightAware ADS-B
Sun 07:41:53 AM 47.7490 -3.0010 119° Southeast 523 602 37,000  Level FlightAware ADS-B
Sun 07:42:29 AM 47.7050 -2.8860 120° Southeast 521 600 37,000  Level FlightAware ADS-B
Sun 07:43:05 AM 47.6630 -2.7770 120° Southeast 519 597 37,000  Level FlightAware ADS-B
Sun 07:43:37 AM 47.6250 -2.6790 120° Southeast 518 596 37,000  Level FlightAware ADS-B
Sun 07:44:15 AM 47.5800 -2.5610 119° Southeast 516 594 37,000  Level FlightAware ADS-B
Sun 07:44:47 AM 47.5420 -2.4620 120° Southeast 516 594 37,000  Level FlightAware ADS-B
Sun 07:45:22 AM 47.5010 -2.3560 120° Southeast 517 595 37,000  Level FlightAware ADS-B
Sun 07:45:59 AM 47.4570 -2.2420 120° Southeast 519 597 37,000  Level FlightAware ADS-B
Sun 07:46:35 AM 47.4130 -2.1300 120° Southeast 521 600 37,000  Level FlightAware ADS-B
Sun 07:47:15 AM 47.3670 -2.0120 120° Southeast 523 602 37,000  Level FlightAware ADS-B
Sun 07:47:51 AM 47.3230 -1.9020 121° Southeast 524 603 37,000  Level FlightAware ADS-B
Sun 07:48:27 AM 47.2790 -1.7910 120° Southeast 526 605 37,000  Level FlightAware ADS-B
Sun 07:49:00 AM 47.2360 -1.6840 121° Southeast 528 608 37,000  Level FlightAware ADS-B
Sun 07:49:36 AM 47.1930 -1.5750 120° Southeast 529 609 37,000  Level FlightAware ADS-B
Sun 07:50:06 AM 47.1560 -1.4820 120° Southeast 532 612 37,000  Level FlightAware ADS-B
Sun 07:50:44 AM 47.1070 -1.3630 121° Southeast 533 613 37,000  Level FlightAware ADS-B
Sun 07:51:20 AM 47.0630 -1.2510 120° Southeast 537 618 37,000  Level FlightAware ADS-B
Sun 07:51:56 AM 47.0170 -1.1380 121° Southeast 539 620 37,000  Level FlightAware ADS-B
Sun 07:52:30 AM 46.9730 -1.0310 121° Southeast 540 621 37,000  Level FlightAware ADS-B
Sun 07:53:05 AM 46.9270 -0.9180 121° Southeast 542 624 37,000  Level FlightAware ADS-B
Sun 07:53:41 AM 46.8830 -0.8050 120° Southeast 541 623 37,000  Level FlightAware ADS-B
Sun 07:54:14 AM 46.8460 -0.7030 118° Southeast 540 621 37,000  Level FlightAware ADS-B
Sun 07:54:51 AM 46.8040 -0.5760 116° Southeast 539 620 37,000  Level FlightAware ADS-B
Sun 07:55:21 AM 46.7740 -0.4840 115° Southeast 539 620 37,000  Level FlightAware ADS-B
Sun 07:56:11 AM 46.7200 -0.3190 115° Southeast 540 621 37,000  Level FlightAware ADS-B
Sun 07:56:46 AM 46.6820 -0.2050 116° Southeast 540 621 37,000  Level FlightAware ADS-B
Sun 07:57:26 AM 46.6380 -0.0760 116° Southeast 540 621 37,000  Level FlightAware ADS-B
Sun 07:57:56 AM 46.6050 0.0230 116° Southeast 540 621 37,000  Level FlightAware ADS-B
Sun 07:58:31 AM 46.5650 0.1390 117° Southeast 541 623 37,000  Level FlightAware ADS-B
Sun 07:59:11 AM 46.5230 0.2640 116° Southeast 541 623 37,000  Level FlightAware ADS-B
Sun 07:59:46 AM 46.4830 0.3790 117° Southeast 542 624 37,000  Level FlightAware ADS-B
Sun 08:00:16 AM 46.4500 0.4760 116° Southeast 542 624 37,000  Level FlightAware ADS-B
Sun 08:00:51 AM 46.4100 0.5970 116° Southeast 543 625 37,000  Level FlightAware ADS-B
Sun 08:01:31 AM 46.3670 0.7220 116° Southeast 543 625 37,000  Level FlightAware ADS-B
Sun 08:02:01 AM 46.3350 0.8190 116° Southeast 543 625 37,000  Level FlightAware ADS-B
Sun 08:02:36 AM 46.2960 0.9340 116° Southeast 543 625 37,000  Level FlightAware ADS-B
Sun 08:03:13 AM 46.2590 1.0420 116° Southeast 544 626 37,000  Level FlightAware ADS-B
Sun 08:03:51 AM 46.2130 1.1750 117° Southeast 545 627 37,000  Level FlightAware ADS-B
Sun 08:04:36 AM 46.1680 1.3010 117° Southeast 544 626 37,000  Level FlightAware ADS-B
Sun 08:05:13 AM 46.1220 1.4270 118° Southeast 543 625 37,000  Level FlightAware ADS-B
Sun 08:05:49 AM 46.0820 1.5400 117° Southeast 543 625 37,000  Level FlightAware ADS-B
Sun 08:06:28 AM 46.0360 1.6660 118° Southeast 543 625 37,000  Level FlightAware ADS-B
Sun 08:07:06 AM 45.9840 1.8060 118° Southeast 543 625 37,000  Level FlightAware ADS-B
Sun 08:07:38 AM 45.9540 1.8890 117° Southeast 544 626 37,000  Level FlightAware ADS-B
Sun 08:08:23 AM 45.8930 2.0550 118° Southeast 546 628 37,000  Level FlightAware ADS-B
Sun 08:08:58 AM 45.8520 2.1670 118° Southeast 547 629 37,000  Level FlightAware ADS-B
Sun 08:09:35 AM 45.8080 2.2870 118° Southeast 548 631 37,000  Level FlightAware ADS-B
Sun 08:10:06 AM 45.7720 2.3850 118° Southeast 550 633 37,000  Level FlightAware ADS-B
Sun 08:10:43 AM 45.7280 2.5060 117° Southeast 550 633 37,000  Level FlightAware ADS-B
Sun 08:11:20 AM 45.6830 2.6250 118° Southeast 549 632 37,000  Level FlightAware ADS-B
Sun 08:11:52 AM 45.6460 2.7260 118° Southeast 549 632 37,000  Level FlightAware ADS-B
Sun 08:12:28 AM 45.6030 2.8420 118° Southeast 548 631 37,000  Level FlightAware ADS-B
Sun 08:13:00 AM 45.5640 2.9450 118° Southeast 548 631 37,000  Level FlightAware ADS-B
Sun 08:13:38 AM 45.5190 3.0670 118° Southeast 548 631 37,000  Level FlightAware ADS-B
Sun 08:14:14 AM 45.4770 3.1770 119° Southeast 548 631 37,000  Level FlightAware ADS-B
Sun 08:14:50 AM 45.4350 3.2910 118° Southeast 547 629 37,000  Level FlightAware ADS-B
Sun 08:15:20 AM 45.3990 3.3900 117° Southeast 547 629 37,000  Level FlightAware ADS-B
Sun 08:15:58 AM 45.3540 3.5110 118° Southeast 548 631 37,000  Level FlightAware ADS-B
Sun 08:16:32 AM 45.3160 3.6150 117° Southeast 550 633 37,000  Level FlightAware ADS-B
Sun 08:17:10 AM 45.2690 3.7430 118° Southeast 553 636 37,000  Level FlightAware ADS-B
Sun 08:17:42 AM 45.2320 3.8410 118° Southeast 553 636 37,000  Level FlightAware ADS-B
Sun 08:18:18 AM 45.1820 3.9580 121° Southeast 553 636 37,000  Level FlightAware ADS-B
Sun 08:18:54 AM 45.1350 4.0660 122° Southeast 554 638 37,000  Level FlightAware ADS-B
Sun 08:19:28 AM 45.0860 4.1710 123° Southeast 554 638 37,000  Level FlightAware ADS-B
Sun 08:20:04 AM 45.0340 4.2790 124° Southeast 558 642 37,000  Level FlightAware ADS-B
Sun 08:20:36 AM 44.9880 4.3760 124° Southeast 560 644 37,000  Level FlightAware ADS-B
Sun 08:21:12 AM 44.9360 4.4860 124° Southeast 562 647 37,000  Level FlightAware ADS-B
Sun 08:21:48 AM 44.8850 4.5960 123° Southeast 566 651 37,000  Level FlightAware ADS-B
Sun 08:22:22 AM 44.8360 4.6990 124° Southeast 566 651 37,000  Level FlightAware ADS-B
Sun 08:23:00 AM 44.7790 4.8180 124° Southeast 567 652 37,000  Level FlightAware ADS-B
Sun 08:23:32 AM 44.7330 4.9150 124° Southeast 567 652 37,000  Level FlightAware ADS-B
Sun 08:24:08 AM 44.6800 5.0260 124° Southeast 567 652 37,000  Level FlightAware ADS-B
Sun 08:24:42 AM 44.6300 5.1300 124° Southeast 567 652 37,000  Level FlightAware ADS-B
Sun 08:25:18 AM 44.5790 5.2360 124° Southeast 568 654 37,000  Level FlightAware ADS-B
Sun 08:25:54 AM 44.5250 5.3470 124° Southeast 569 655 37,000  Level FlightAware ADS-B
Sun 08:26:26 AM 44.4760 5.4460 125° Southeast 570 656 37,000  Level FlightAware ADS-B
Sun 08:27:02 AM 44.4240 5.5530 124° Southeast 571 657 37,000  Level FlightAware ADS-B
Sun 08:27:32 AM 44.3790 5.6460 124° Southeast 569 655 37,000  Level FlightAware ADS-B
Sun 08:28:14 AM 44.3170 5.7730 124° Southeast 568 654 37,000  Level FlightAware ADS-B
Sun 08:28:46 AM 44.2690 5.8700 125° Southeast 566 651 37,000  Level FlightAware ADS-B
Sun 08:29:24 AM 44.2140 5.9870 123° Southeast 567 652 37,000  Level FlightAware ADS-B
Sun 08:30:00 AM 44.1650 6.1010 121° Southeast 567 652 37,000  Level FlightAware ADS-B
Sun 08:30:30 AM 44.1250 6.1920 121° Southeast 568 654 37,000  Level FlightAware ADS-B
Sun 08:31:08 AM 44.0740 6.3090 121° Southeast 569 655 37,000  Level FlightAware ADS-B
Sun 08:31:40 AM 44.0300 6.4070 122° Southeast 570 656 37,000  Level FlightAware ADS-B
Sun 08:32:16 AM 43.9770 6.5250 122° Southeast 571 657 37,000  Level FlightAware ADS-B
Sun 08:32:48 AM 43.9330 6.6220 122° Southeast 572 658 37,000  Level FlightAware ADS-B
Sun 08:33:28 AM 43.8760 6.7470 122° Southeast 573 659 37,000  Level FlightAware ADS-B
Sun 08:34:04 AM 43.8280 6.8530 122° Southeast 573 659 37,000  Level FlightAware ADS-B
Sun 08:34:36 AM 43.7810 6.9550 123° Southeast 575 662 37,000  Level FlightAware ADS-B
Sun 08:35:09 AM 43.7340 7.0570 123° Southeast 574 661 37,000  Level FlightAware ADS-B
Sun 08:35:44 AM 43.6830 7.1680 122° Southeast 572 658 37,000  Level FlightAware ADS-B
Sun 08:36:24 AM 43.6260 7.2900 123° Southeast 572 658 37,000  Level FlightAware ADS-B
Sun 08:36:56 AM 43.5850 7.3790 122° Southeast 570 656 37,000  Level FlightAware ADS-B
Sun 08:37:32 AM 43.5290 7.5000 123° Southeast 569 655 37,000  Level FlightAware ADS-B
Sun 08:38:09 AM 43.4760 7.6120 123° Southeast 569 655 37,000  Level FlightAware ADS-B
Sun 08:38:40 AM 43.4310 7.7090 123° Southeast 570 656 37,000  Level FlightAware ADS-B
Sun 08:39:18 AM 43.3780 7.8220 123° Southeast 570 656 37,000  Level FlightAware ADS-B
Sun 08:39:52 AM 43.3280 7.9280 123° Southeast 570 656 37,000  Level FlightAware ADS-B
Sun 08:40:29 AM 43.2750 8.0400 123° Southeast 571 657 37,000  Level FlightAware ADS-B
Sun 08:41:02 AM 43.2280 8.1400 123° Southeast 570 656 37,000  Level FlightAware ADS-B
Sun 08:41:39 AM 43.1750 8.2510 123° Southeast 571 657 37,000  Level FlightAware ADS-B
Sun 08:42:15 AM 43.1230 8.3590 123° Southeast 571 657 37,000  Level FlightAware ADS-B
Sun 08:42:46 AM 43.0780 8.4520 124° Southeast 572 658 37,000  Level FlightAware ADS-B
Sun 08:43:22 AM 43.0260 8.5590 124° Southeast 571 657 37,000  Level FlightAware ADS-B
Sun 08:43:56 AM 42.9760 8.6620 124° Southeast 571 657 37,000  Level FlightAware ADS-B
Sun 08:44:34 AM 42.9200 8.7760 124° Southeast 570 656 37,000  Level FlightAware ADS-B
Sun 08:45:06 AM 42.8730 8.8740 123° Southeast 569 655 37,000  Level FlightAware ADS-B
Sun 08:45:46 AM 42.8140 8.9930 124° Southeast 569 655 37,000  Level FlightAware ADS-B
Sun 08:46:21 AM 42.7640 9.0950 124° Southeast 570 656 37,000  Level FlightAware ADS-B
Sun 08:47:00 AM 42.7060 9.2130 124° Southeast 569 655 37,000  Level FlightAware ADS-B
Sun 08:47:36 AM 42.6530 9.3190 124° Southeast 568 654 37,000  Level FlightAware ADS-B
Sun 08:48:12 AM 42.6020 9.4240 123° Southeast 569 655 37,000  Level FlightAware ADS-B
Sun 08:48:44 AM 42.5640 9.5290 116° Southeast 570 656 37,000  Level FlightAware ADS-B
Sun 08:49:17 AM 42.5340 9.6380 110° East 569 655 37,000  Level FlightAware ADS-B
Sun 08:49:57 AM 42.4990 9.7700 110° East 570 656 37,000  Level FlightAware ADS-B
Sun 08:50:27 AM 42.4730 9.8710 109° East 573 659 37,000  Level FlightAware ADS-B
Sun 08:51:06 AM 42.4370 10.0050 110° East 574 661 37,000  Level FlightAware ADS-B
Sun 08:51:38 AM 42.4090 10.1110 110° East 575 662 37,000  Level FlightAware ADS-B
Sun 08:52:14 AM 42.3750 10.2380 110° East 574 661 37,000  Level FlightAware ADS-B
Sun 08:52:50 AM 42.3420 10.3590 110° East 574 661 37,000  Level FlightAware ADS-B
Sun 08:53:21 AM 42.3150 10.4580 110° East 573 659 37,000  Level FlightAware ADS-B
Sun 08:53:57 AM 42.2820 10.5800 110° East 570 656 37,000  Level FlightAware ADS-B
Sun 08:54:36 AM 42.2450 10.7110 111° Southeast 570 656 37,000  Level FlightAware ADS-B
Sun 08:55:08 AM 42.2150 10.8190 111° Southeast 568 654 37,000  Level FlightAware ADS-B
Sun 08:55:46 AM 42.1800 10.9450 111° Southeast 566 651 37,000  Level FlightAware ADS-B
Sun 08:56:18 AM 42.1460 11.0460 114° Southeast 563 648 37,000  Level FlightAware ADS-B
Sun 08:56:53 AM 42.0980 11.1470 123° Southeast 563 648 37,000  Level FlightAware ADS-B
Sun 08:57:27 AM 42.0410 11.2380 130° Southeast 561 646 37,000  Level FlightAware ADS-B
Sun 08:58:04 AM 41.9780 11.3370 131° Southeast 558 642 37,000  Level FlightAware ADS-B
Sun 08:58:40 AM 41.9160 11.4320 131° Southeast 557 641 37,000  Level FlightAware ADS-B
Sun 08:59:16 AM 41.8560 11.5260 131° Southeast 555 639 37,000  Level FlightAware ADS-B
Sun 08:59:48 AM 41.8010 11.6100 131° Southeast 554 638 37,000  Level FlightAware ADS-B
Sun 09:00:24 AM 41.7410 11.7030 131° Southeast 553 636 37,000  Level FlightAware ADS-B
Sun 09:01:00 AM 41.6790 11.7970 131° Southeast 552 635 37,000  Level FlightAware ADS-B
Sun 09:01:34 AM 41.6230 11.8830 131° Southeast 551 634 37,000  Level FlightAware ADS-B
Sun 09:02:10 AM 41.5630 11.9750 131° Southeast 549 632 37,000  Level FlightAware ADS-B
Sun 09:02:46 AM 41.5030 12.0670 131° Southeast 547 629 37,000  Level FlightAware ADS-B
Sun 09:03:22 AM 41.4430 12.1590 131° Southeast 545 627 37,000  Level FlightAware ADS-B
Sun 09:03:54 AM 41.3910 12.2380 131° Southeast 544 626 37,000  Level FlightAware ADS-B
Sun 09:04:30 AM 41.3310 12.3290 131° Southeast 542 624 37,000  Level FlightAware ADS-B
Sun 09:05:06 AM 41.2730 12.4160 132° Southeast 541 623 37,000  Level FlightAware ADS-B
Sun 09:05:42 AM 41.2120 12.5080 131° Southeast 543 625 37,000  Level FlightAware ADS-B
Sun 09:06:12 AM 41.1640 12.5810 131° Southeast 544 626 37,000  Level FlightAware ADS-B
Sun 09:06:50 AM 41.1130 12.6910 122° Southeast 544 626 37,000  Level FlightAware ADS-B
Sun 09:07:20 AM 41.0750 12.7750 121° Southeast 542 624 37,000 188 Level FlightAware ADS-B
Sun 09:07:54 AM 41.0310 12.8720 121° Southeast 536 617 37,200 493 Climbing FlightAware ADS-B
Sun 09:08:33 AM 40.9790 12.9800 123° Southeast 525 604 37,600 868 Climbing FlightAware ADS-B
Sun 09:09:10 AM 40.9320 13.0800 122° Southeast 519 597 38,300 1,151 Climbing FlightAware ADS-B
Sun 09:09:46 AM 40.8880 13.1780 121° Southeast 515 593 39,000 600 Climbing FlightAware ADS-B
Sun 09:10:20 AM 40.8460 13.2700 121° Southeast 522 601 39,000  Level FlightAware ADS-B
Sun 09:10:51 AM 40.8070 13.3550 121° Southeast 519 597 39,000  Level FlightAware ADS-B
Sun 09:11:31 AM 40.7720 13.4740 111° Southeast 522 601 39,000  Level FlightAware ADS-B
Sun 09:12:03 AM 40.7510 13.5720 106° East 523 602 39,000  Level FlightAware ADS-B
Sun 09:12:39 AM 40.7270 13.6800 106° East 523 602 39,000  Level FlightAware ADS-B
Sun 09:13:15 AM 40.7030 13.7940 105° East 523 602 39,000  Level FlightAware ADS-B
Sun 09:13:47 AM 40.6830 13.8920 105° East 522 601 39,000  Level FlightAware ADS-B
Sun 09:14:25 AM 40.6590 14.0080 105° East 517 595 39,000  Level FlightAware ADS-B
Sun 09:14:55 AM 40.6400 14.0990 105° East 513 590 39,000  Level FlightAware ADS-B
Sun 09:15:33 AM 40.6160 14.2100 106° East 510 587 39,000  Level FlightAware ADS-B
Sun 09:16:11 AM 40.5920 14.3220 106° East 508 585 39,000  Level FlightAware ADS-B
Sun 09:16:47 AM 40.5660 14.4310 107° East 503 579 39,000  Level FlightAware ADS-B
Sun 09:17:19 AM 40.5380 14.5220 112° Southeast 502 578 39,000  Level FlightAware ADS-B
Sun 09:17:55 AM 40.5060 14.6210 113° Southeast 501 577 39,000  Level FlightAware ADS-B
Sun 09:18:31 AM 40.4700 14.7220 115° Southeast 500 575 39,000  Level FlightAware ADS-B
Sun 09:19:06 AM 40.4300 14.8120 120° Southeast 498 573 39,000  Level FlightAware ADS-B
Sun 09:19:38 AM 40.3940 14.8980 119° Southeast 500 575 39,000  Level FlightAware ADS-B
Sun 09:20:14 AM 40.3540 14.9940 119° Southeast 502 578 39,000  Level FlightAware ADS-B
Sun 09:20:50 AM 40.3140 15.0880 119° Southeast 504 580 39,000  Level FlightAware ADS-B
Sun 09:21:26 AM 40.2730 15.1850 119° Southeast 511 588 39,000  Level FlightAware ADS-B
Sun 09:21:58 AM 40.2350 15.2730 119° Southeast 514 592 39,000  Level FlightAware ADS-B
Sun 09:22:36 AM 40.1900 15.3740 120° Southeast 515 593 39,000  Level FlightAware ADS-B
Sun 09:23:12 AM 40.1470 15.4730 120° Southeast 511 588 39,000  Level FlightAware ADS-B
Sun 09:23:44 AM 40.1110 15.5560 120° Southeast 506 582 39,000  Level FlightAware ADS-B
Sun 09:24:20 AM 40.0690 15.6540 119° Southeast 502 578 39,000  Level FlightAware ADS-B
Sun 09:24:55 AM 40.0300 15.7430 120° Southeast 500 575 39,000  Level FlightAware ADS-B
Sun 09:25:27 AM 39.9920 15.8290 120° Southeast 498 573 39,000  Level FlightAware ADS-B
Sun 09:26:03 AM 39.9510 15.9220 120° Southeast 497 572 39,000  Level FlightAware ADS-B
Sun 09:26:39 AM 39.9100 16.0160 120° Southeast 498 573 39,000  Level FlightAware ADS-B
Sun 09:27:15 AM 39.8670 16.1110 121° Southeast 503 579 39,000  Level FlightAware ADS-B
Sun 09:27:51 AM 39.8260 16.2050 120° Southeast 505 581 39,000  Level FlightAware ADS-B
Sun 09:28:23 AM 39.7900 16.2860 120° Southeast 506 582 39,000  Level FlightAware ADS-B
Sun 09:29:01 AM 39.7440 16.3890 120° Southeast 507 583 39,000  Level FlightAware ADS-B
Sun 09:29:37 AM 39.7020 16.4820 120° Southeast 509 586 39,000  Level FlightAware ADS-B
Sun 09:30:09 AM 39.6630 16.5690 120° Southeast 510 587 39,000  Level FlightAware ADS-B
Sun 09:30:45 AM 39.6200 16.6640 120° Southeast 514 592 39,000  Level FlightAware ADS-B
Sun 09:31:21 AM 39.5770 16.7580 121° Southeast 516 594 39,000  Level FlightAware ADS-B
Sun 09:31:53 AM 39.5370 16.8460 120° Southeast 518 596 39,000  Level FlightAware ADS-B
Sun 09:32:29 AM 39.4940 16.9420 120° Southeast 518 596 39,000  Level FlightAware ADS-B
Sun 09:33:07 AM 39.4470 17.0450 121° Southeast 524 603 39,000  Level FlightAware ADS-B
Sun 09:33:39 AM 39.4080 17.1300 121° Southeast 526 605 39,000  Level FlightAware ADS-B
Sun 09:34:15 AM 39.3640 17.2260 121° Southeast 525 604 39,000  Level FlightAware ADS-B
Sun 09:34:47 AM 39.3230 17.3140 121° Southeast 525 604 39,000  Level FlightAware ADS-B
Sun 09:35:23 AM 39.2790 17.4080 121° Southeast 525 604 39,000  Level FlightAware ADS-B
Sun 09:35:59 AM 39.2340 17.5060 121° Southeast 525 604 39,000  Level FlightAware ADS-B
Sun 09:36:35 AM 39.1880 17.6060 121° Southeast 527 606 39,000  Level FlightAware ADS-B
Sun 09:37:07 AM 39.1480 17.6910 121° Southeast 527 606 39,000  Level FlightAware ADS-B
Sun 09:37:45 AM 39.1010 17.7910 121° Southeast 527 606 39,000  Level FlightAware ADS-B
Sun 09:38:19 AM 39.0580 17.8840 121° Southeast 528 608 39,000  Level FlightAware ADS-B
Sun 09:38:55 AM 39.0130 17.9810 121° Southeast 527 606 39,000  Level FlightAware ADS-B
Sun 09:39:24 AM 38.9770 18.0570 121° Southeast 528 608 39,000  Level FlightAware ADS-B
Sun 09:40:05 AM 38.9240 18.1690 121° Southeast 528 608 39,000  Level FlightAware ADS-B
Sun 09:40:41 AM 38.8790 18.2660 121° Southeast 528 608 39,000  Level FlightAware ADS-B
Sun 09:41:13 AM 38.8380 18.3520 121° Southeast 528 608 39,000  Level FlightAware ADS-B
Sun 09:41:51 AM 38.7900 18.4520 122° Southeast 529 609 39,000  Level FlightAware ADS-B
Sun 09:42:25 AM 38.7460 18.5440 121° Southeast 528 608 39,000  Level FlightAware ADS-B
Sun 09:43:01 AM 38.7010 18.6400 121° Southeast 528 608 39,000  Level FlightAware ADS-B
Sun 09:43:36 AM 38.6570 18.7310 122° Southeast 527 606 39,000  Level FlightAware ADS-B
Sun 09:44:10 AM 38.6120 18.8230 122° Southeast 527 606 39,000  Level FlightAware ADS-B
Sun 09:44:49 AM 38.5770 18.8970 121° Southeast 528 608 39,000  Level FlightAware ADS-B
Sun 09:45:30 AM 38.5200 19.0390 117° Southeast 528 608 39,000  Level FlightAware ADS-B
Sun 09:46:10 AM 38.4860 19.1550 110° East 527 606 39,000  Level FlightAware ADS-B
Sun 09:46:41 AM 38.4570 19.2430 113° Southeast 526 605 39,000  Level FlightAware ADS-B
Sun 09:47:20 AM 38.4200 19.3560 113° Southeast 526 605 39,000  Level FlightAware ADS-B
Sun 09:47:55 AM 38.3870 19.4590 112° Southeast 524 603 39,000  Level FlightAware ADS-B
Sun 09:48:25 AM 38.3600 19.5430 112° Southeast 525 604 39,000  Level FlightAware ADS-B
Sun 09:49:01 AM 38.3280 19.6440 112° Southeast 525 604 39,000  Level FlightAware ADS-B
Sun 09:49:35 AM 38.2960 19.7440 112° Southeast 524 603 39,000  Level FlightAware ADS-B
Sun 09:50:15 AM 38.2590 19.8600 112° Southeast 525 604 39,000  Level FlightAware ADS-B
Sun 09:50:55 AM 38.2220 19.9740 112° Southeast 527 606 39,000  Level FlightAware ADS-B
Sun 09:51:30 AM 38.1880 20.0770 113° Southeast 530 610 39,000  Level FlightAware ADS-B
Sun 09:52:05 AM 38.1560 20.1760 112° Southeast 530 610 39,000  Level FlightAware ADS-B
Sun 09:52:40 AM 38.1220 20.2800 113° Southeast 530 610 39,000  Level FlightAware ADS-B
Sun 09:53:15 AM 38.0890 20.3790 113° Southeast 531 611 39,000  Level FlightAware ADS-B
Sun 09:53:50 AM 38.0560 20.4810 112° Southeast 530 610 39,000  Level FlightAware ADS-B
Sun 09:54:25 AM 38.0230 20.5810 113° Southeast 530 610 39,000  Level FlightAware ADS-B
Sun 09:55:00 AM 37.9890 20.6830 113° Southeast 532 612 39,000  Level FlightAware ADS-B
Sun 09:55:35 AM 37.9560 20.7820 113° Southeast 531 611 39,000  Level FlightAware ADS-B
Sun 09:56:11 AM 37.9220 20.8820 113° Southeast 531 611 39,000  Level FlightAware ADS-B
Sun 09:56:45 AM 37.8880 20.9820 113° Southeast 530 610 39,000  Level FlightAware ADS-B
Sun 09:57:20 AM 37.8540 21.0810 113° Southeast 529 609 39,000  Level FlightAware ADS-B
Sun 09:57:56 AM 37.8200 21.1800 113° Southeast 528 608 39,000  Level FlightAware ADS-B
Sun 09:58:31 AM 37.7850 21.2820 113° Southeast 527 606 39,000  Level FlightAware ADS-B
Sun 09:59:02 AM 37.7540 21.3730 113° Southeast 524 603 39,000  Level FlightAware ADS-B
Sun 09:59:46 AM 37.7130 21.4900 114° Southeast 524 603 39,000  Level FlightAware ADS-B
Sun 10:00:25 AM 37.6740 21.6050 113° Southeast 522 601 39,000  Level FlightAware ADS-B
Sun 10:00:57 AM 37.6440 21.6900 114° Southeast 521 600 39,000  Level FlightAware ADS-B
Sun 10:01:42 AM 37.5990 21.8200 114° Southeast 521 600 39,000  Level FlightAware ADS-B
Sun 10:02:12 AM 37.5720 21.8950 114° Southeast 522 601 39,000  Level FlightAware ADS-B
Sun 10:03:03 AM 37.5260 22.0300 113° Southeast 522 601 39,000  Level FlightAware ADS-B
Sun 10:03:42 AM 37.4820 22.1520 114° Southeast 519 597 39,000  Level FlightAware ADS-B
Sun 10:04:12 AM 37.4540 22.2310 114° Southeast 517 595 39,000  Level FlightAware ADS-B
Sun 10:04:52 AM 37.4100 22.3430 116° Southeast 511 588 39,000  Level FlightAware ADS-B
Sun 10:05:25 AM 37.3670 22.4240 124° Southeast 509 586 39,000  Level FlightAware ADS-B
Sun 10:06:07 AM 37.3090 22.5240 126° Southeast 504 580 39,000  Level FlightAware ADS-B
Sun 10:06:38 AM 37.2680 22.5950 126° Southeast 504 580 39,000  Level FlightAware ADS-B
Sun 10:07:19 AM 37.2110 22.6920 126° Southeast 511 588 39,000  Level FlightAware ADS-B
Sun 10:07:49 AM 37.1720 22.7590 126° Southeast 511 588 39,000  Level FlightAware ADS-B
Sun 10:08:28 AM 37.1130 22.8590 126° Southeast 512 589 39,000  Level FlightAware ADS-B
Sun 10:09:05 AM 37.0600 22.9490 126° Southeast 513 590 39,000  Level FlightAware ADS-B
Sun 10:09:39 AM 37.0130 23.0300 126° Southeast 513 590 39,000  Level FlightAware ADS-B
Sun 10:10:15 AM 36.9620 23.1170 126° Southeast 513 590 39,000  Level FlightAware ADS-B
Sun 10:10:47 AM 36.9180 23.1930 126° Southeast 513 590 39,000  Level FlightAware ADS-B
Sun 10:11:23 AM 36.8660 23.2810 126° Southeast 513 590 39,000  Level FlightAware ADS-B
Sun 10:11:59 AM 36.8180 23.3650 126° Southeast 515 593 39,000  Level FlightAware ADS-B
Sun 10:12:35 AM 36.7710 23.4590 122° Southeast 518 596 39,000  Level FlightAware ADS-B
Sun 10:13:07 AM 36.7310 23.5400 122° Southeast 518 596 39,000  Level FlightAware ADS-B
Sun 10:13:43 AM 36.6890 23.6330 119° Southeast 523 602 39,000  Level FlightAware ADS-B
Sun 10:14:18 AM 36.6500 23.7260 118° Southeast 524 603 39,000  Level FlightAware ADS-B
Sun 10:14:53 AM 36.6100 23.8220 117° Southeast 524 603 39,000  Level FlightAware ADS-B
Sun 10:15:29 AM 36.5690 23.9180 118° Southeast 524 603 39,000  Level FlightAware ADS-B
Sun 10:16:05 AM 36.5290 24.0120 118° Southeast 524 603 39,000  Level FlightAware ADS-B
Sun 10:16:37 AM 36.4920 24.0960 119° Southeast 525 604 39,000  Level FlightAware ADS-B
Sun 10:17:13 AM 36.4490 24.1930 119° Southeast 526 605 39,000  Level FlightAware ADS-B
Sun 10:17:46 AM 36.4110 24.2790 119° Southeast 528 608 39,000  Level FlightAware ADS-B
Sun 10:18:21 AM 36.3700 24.3720 119° Southeast 528 608 39,000  Level FlightAware ADS-B
Sun 10:18:57 AM 36.3280 24.4690 118° Southeast 529 609 39,000  Level FlightAware ADS-B
Sun 10:19:33 AM 36.2860 24.5650 118° Southeast 530 610 39,000  Level FlightAware ADS-B
Sun 10:20:09 AM 36.2450 24.6610 118° Southeast 530 610 39,000  Level FlightAware ADS-B
Sun 10:20:41 AM 36.2080 24.7460 118° Southeast 530 610 39,000  Level FlightAware ADS-B
Sun 10:21:19 AM 36.1630 24.8480 119° Southeast 530 610 39,000  Level FlightAware ADS-B
Sun 10:21:51 AM 36.1250 24.9340 119° Southeast 531 611 39,000  Level FlightAware ADS-B
Sun 10:22:27 AM 36.0840 25.0290 118° Southeast 532 612 39,000  Level FlightAware ADS-B
Sun 10:23:03 AM 36.0410 25.1260 119° Southeast 532 612 39,000  Level FlightAware ADS-B
Sun 10:23:39 AM 35.9980 25.2220 119° Southeast 532 612 39,000  Level FlightAware ADS-B
Sun 10:24:11 AM 35.9600 25.3080 119° Southeast 530 610 39,000  Level FlightAware ADS-B
Sun 10:24:49 AM 35.9150 25.4090 119° Southeast 531 611 39,000  Level FlightAware ADS-B
Sun 10:25:21 AM 35.8780 25.4920 119° Southeast 532 612 39,000  Level FlightAware ADS-B
Sun 10:25:59 AM 35.8330 25.5930 119° Southeast 532 612 39,000  Level FlightAware ADS-B
Sun 10:26:31 AM 35.7940 25.6780 119° Southeast 533 613 39,000  Level FlightAware ADS-B
Sun 10:27:05 AM 35.7520 25.7690 120° Southeast 534 615 39,000  Level FlightAware ADS-B
Sun 10:27:39 AM 35.7100 25.8600 120° Southeast 533 613 39,000  Level FlightAware ADS-B
Sun 10:28:19 AM 35.6620 25.9650 119° Southeast 533 613 39,000  Level FlightAware ADS-B
Sun 10:28:53 AM 35.6210 26.0530 120° Southeast 533 613 39,000  Level FlightAware ADS-B
Sun 10:29:29 AM 35.5780 26.1480 119° Southeast 532 612 39,000  Level FlightAware ADS-B
Sun 10:30:01 AM 35.5390 26.2340 119° Southeast 531 611 39,000  Level FlightAware ADS-B
Sun 10:30:37 AM 35.4960 26.3280 119° Southeast 531 611 39,000  Level FlightAware ADS-B
Sun 10:31:13 AM 35.4530 26.4220 119° Southeast 530 610 39,000  Level FlightAware ADS-B
Sun 10:31:51 AM 35.4070 26.5220 119° Southeast 530 610 39,000  Level FlightAware ADS-B
Sun 10:32:25 AM 35.3670 26.6100 119° Southeast 531 611 39,000  Level FlightAware ADS-B
Sun 10:32:57 AM 35.3290 26.6920 120° Southeast 531 611 39,000  Level FlightAware ADS-B
Sun 10:33:35 AM 35.2880 26.7820 119° Southeast 531 611 39,000  Level FlightAware ADS-B
Sun 10:34:11 AM 35.2510 26.8620 120° Southeast 531 611 39,000  Level FlightAware ADS-B
Sun 10:34:39 AM 35.2070 26.9560 120° Southeast 530 610 39,000  Level FlightAware ADS-B
Sun 10:35:15 AM 35.1620 27.0520 120° Southeast 530 610 39,000  Level FlightAware ADS-B
Sun 10:35:54 AM 35.1140 27.1550 120° Southeast 533 613 39,000  Level FlightAware ADS-B
Sun 10:36:25 AM 35.0760 27.2360 120° Southeast 534 615 39,000  Level FlightAware ADS-B
Sun 10:37:04 AM 35.0270 27.3410 120° Southeast 535 616 39,000  Level FlightAware ADS-B
Sun 10:37:45 AM 34.9800 27.4410 120° Southeast 538 619 39,000  Level FlightAware ADS-B
Sun 10:38:19 AM 34.9340 27.5390 120° Southeast 537 618 39,000  Level FlightAware ADS-B
Sun 10:38:55 AM 34.8900 27.6320 120° Southeast 537 618 39,000  Level FlightAware ADS-B
Sun 10:39:47 AM 34.8340 27.7540 119° Southeast 536 617 39,000  Level FlightAware ADS-B
Sun 10:40:19 AM 34.7910 27.8440 120° Southeast 535 616 39,000  Level FlightAware ADS-B
Sun 10:41:03 AM 34.7390 27.9540 120° Southeast 535 616 39,000  Level FlightAware ADS-B
Sun 10:41:39 AM 34.7020 28.0340 119° Southeast 535 616 39,000  Level FlightAware ADS-B
Sun 10:42:19 AM 34.6370 28.1610 122° Southeast 537 618 39,000  Level FlightAware ADS-B
Sun 10:42:54 AM 34.5890 28.2610 120° Southeast 531 611 39,000  Level FlightAware ADS-B
Sun 10:43:31 AM 34.5520 28.3410 119° Southeast 530 610 39,000  Level FlightAware ADS-B
Sun 10:44:07 AM 34.5150 28.4210 119° Southeast 530 610 39,000  Level FlightAware ADS-B
Sun 10:44:43 AM 34.4790 28.5010 119° Southeast 530 610 39,000  Level FlightAware ADS-B
Sun 10:45:21 AM 34.4410 28.5850 119° Southeast 530 610 39,000  Level FlightAware ADS-B
Sun 10:45:57 AM 34.4040 28.6640 120° Southeast 530 610 39,000  Level FlightAware ADS-B
Sun 10:46:34 AM 34.3670 28.7460 119° Southeast 530 610 39,000  Level FlightAware ADS-B
Sun 10:47:10 AM 34.3310 28.8250 119° Southeast 530 610 39,000  Level FlightAware ADS-B
Sun 10:47:46 AM 34.2940 28.9050 119° Southeast 530 610 39,000  Level FlightAware ADS-B
Sun 10:48:23 AM 34.2570 28.9860 119° Southeast 530 610 39,000  Level FlightAware ADS-B
Sun 10:48:44 AM 34.1550 29.1550 126° Southeast 39,000  Level FlightAware ADS-B
Sun 10:50:09 AM 34.0510 29.3660 121° Southeast 39,000  Level FlightAware ADS-B
Sun 10:50:49 AM 34.0040 29.4620 121° Southeast 521 600 39,000  Level FlightAware ADS-B
Sun 10:51:26 AM 33.9660 29.5410 120° Southeast 521 600 39,000  Level FlightAware ADS-B
Sun 10:51:59 AM 33.9120 29.6460 122° Southeast 834 960 39,000  Level FlightAware ADS-B
Sun 10:52:33 AM 33.8690 29.7330 121° Southeast 521 600 39,000  Level FlightAware ADS-B
Sun 10:53:31 AM 33.8020 29.8680 121° Southeast 524 603 39,000  Level FlightAware ADS-B
Sun 10:54:04 AM 33.7580 29.9620 119° Southeast 527 606 39,000  Level FlightAware ADS-B
Sun 10:54:49 AM 33.7390 30.0890 100° East 539 620 39,000  Level FlightAware ADS-B
Sun 10:55:31 AM 33.7370 30.1970 91° East 539 620 39,000  Level FlightAware ADS-B
Sun 10:56:04 AM 33.7350 30.3140 91° East 539 620 39,000  Level FlightAware ADS-B
Sun 10:56:40 AM 33.7340 30.4250 91° East 539 620 39,000  Level FlightAware ADS-B
Sun 10:57:15 AM 33.7320 30.5300 91° East 539 620 39,000  Level FlightAware ADS-B
Sun 10:58:05 AM 33.7290 30.6790 91° East 539 620 39,000  Level FlightAware ADS-B
Sun 10:58:41 AM 33.7270 30.7860 91° East 539 620 39,000  Level FlightAware ADS-B
Sun 10:59:16 AM 33.7250 30.8920 91° East 539 620 39,000  Level FlightAware ADS-B
Sun 10:59:46 AM 33.7230 30.9820 92° East 539 620 39,000  Level FlightAware ADS-B
Sun 11:00:26 AM 33.7200 31.1000 92° East 538 619 39,000  Level FlightAware ADS-B
Sun 11:00:56 AM 33.7190 31.1860 91° East 538 619 39,000  Level FlightAware ADS-B
Sun 11:01:36 AM 33.7160 31.3100 92° East 538 619 39,000  Level FlightAware ADS-B
Sun 11:02:06 AM 33.7140 31.4010 91° East 538 619 39,000  Level FlightAware ADS-B
Sun 11:02:41 AM 33.7090 31.5020 93° East 536 617 39,000  Level FlightAware ADS-B
Sun 11:03:16 AM 33.6800 31.5980 110° East 529 609 39,000  Level FlightAware ADS-B
Sun 11:03:52 AM 33.6450 31.6950 113° Southeast 530 610 39,000  Level FlightAware ADS-B
Sun 11:04:27 AM 33.6090 31.7920 114° Southeast 531 611 39,000  Level FlightAware ADS-B
Sun 11:05:07 AM 33.5650 31.8960 117° Southeast 526 605 39,000  Level FlightAware ADS-B
Sun 11:05:37 AM 33.5310 31.9770 117° Southeast 526 605 39,000  Level FlightAware ADS-B
Sun 11:06:12 AM 33.4950 32.0660 116° Southeast 524 603 39,000  Level FlightAware ADS-B
Sun 11:06:47 AM 33.4560 32.1590 117° Southeast 523 602 39,000  Level FlightAware ADS-B
Sun 11:07:21 AM 33.4190 32.2480 116° Southeast 522 601 39,000  Level FlightAware ADS-B
Sun 11:07:57 AM 33.3860 32.3290 116° Southeast 522 601 39,000  Level FlightAware ADS-B
Sun 11:08:27 AM 33.3490 32.4160 117° Southeast 520 598 39,000  Level FlightAware ADS-B
Sun 11:09:02 AM 33.3090 32.5120 116° Southeast 520 598 39,000 -845 Level FlightAware ADS-B
Sun 11:09:38 AM 33.2720 32.6020 116° Southeast 519 597 38,000 -2,535 Descending FlightAware ADS-B
Sun 11:10:13 AM 33.2340 32.6930 117° Southeast 526 605 36,000 -3,680 Descending FlightAware ADS-B
Sun 11:10:53 AM 33.1900 32.7960 117° Southeast 543 625 33,400 -3,600 Descending FlightAware ADS-B
Sun 11:11:28 AM 33.1510 32.8890 117° Southeast 538 619 31,500 -2,829 Descending FlightAware ADS-B
Sun 11:12:03 AM 33.1100 32.9760 119° Southeast 520 598 30,100 -2,466 Descending FlightAware ADS-B
Sun 11:12:41 AM 33.0580 33.0780 121° Southeast 508 585 28,500 -2,366 Descending FlightAware ADS-B
Sun 11:13:14 AM 33.0200 33.1530 121° Southeast 496 571 27,300 -2,172 Descending FlightAware ADS-B
Sun 11:13:39 AM 33.0010 33.2120 111° Southeast 490 564 26,400 -1,969 Descending FlightAware ADS-B
Sun 11:14:18 AM 32.9900 33.3210 97° East 466 536 25,200 -1,397 Descending FlightAware ADS-B
Sun 11:14:52 AM 32.9870 33.4040 92° East 435 501 24,700 -789 Descending FlightAware ADS-B
Sun 11:15:34 AM 32.9840 33.5010 92° East 401 461 24,200 -1,000 Descending FlightAware ADS-B
Sun 11:16:10 AM 32.9810 33.5780 93° East 389 448 23,400 -1,437 Descending FlightAware ADS-B
Sun 11:16:45 AM 32.9780 33.6540 93° East 377 434 22,500 -1,521 Descending FlightAware ADS-B
Sun 11:17:21 AM 32.9750 33.7280 93° East 367 422 21,600 -1,560 Descending FlightAware ADS-B
Sun 11:17:35 AM 32.9720 33.7550 98° East 364 419 21,200 -1,235 Descending FlightAware ADS-B
Sun 11:17:55 AM 32.9590 33.7910 113° Southeast 355 409 20,900 -1,317 Descending FlightAware ADS-B
Sun 11:18:16 AM 32.9370 33.8210 131° Southeast 349 402 20,300 -1,607 Descending FlightAware ADS-B
Sun 11:18:51 AM 32.8910 33.8640 142° Southeast 343 395 19,400 -1,521 Descending FlightAware ADS-B
Sun 11:19:27 AM 32.8470 33.9050 142° Southeast 335 386 18,500 -1,478 Descending FlightAware ADS-B
Sun 11:20:00 AM 32.8050 33.9430 143° Southeast 383 441 17,700 -1,543 Descending FlightAware ADS-B
Sun 11:20:37 AM 32.7500 33.9950 142° Southeast 413 475 16,700 -1,739 Descending FlightAware ADS-B
Sun 11:21:09 AM 32.7010 34.0400 142° Southeast 408 470 15,700 -1,714 Descending FlightAware ADS-B
Sun 11:21:47 AM 32.6460 34.0920 141° Southeast 391 450 14,700 -1,583 Descending FlightAware ADS-B
Sun 11:22:21 AM 32.6000 34.1350 142° Southeast 376 433 13,800 -1,636 Descending FlightAware ADS-B
Sun 11:22:53 AM 32.5560 34.1760 142° Southeast 361 415 12,900 -1,543 Descending FlightAware ADS-B
Sun 11:23:31 AM 32.5060 34.2220 142° Southeast 347 399 12,000 -1,043 Descending FlightAware ADS-B
Sun 11:24:25 AM 32.4460 34.2750 143° Southeast 340 391 11,300 -1,253 Descending FlightAware ADS-B
Sun 11:25:02 AM 32.3960 34.3190 143° Southeast 313 360 10,100 -935 Descending FlightAware ADS-B
Sun 11:25:42 AM 32.3560 34.3560 142° Southeast 308 354 10,100  Level FlightAware ADS-B
Sun 11:26:19 AM 32.3200 34.3890 142° Southeast 308 354 10,100  Level FlightAware ADS-B
Sun 11:26:55 AM 32.2860 34.4210 141° Southeast 308 354 10,100  Level FlightAware ADS-B
Sun 11:29:00 AM 32.1013 34.6968 115° Southeast  Level FlightAware Approximate
Sun 11:30:00 AM 32.0191 34.8349 125° Southeast  Level FlightAware Approximate
Sun 11:31:00 AM 32.0000 34.8667 125° Southeast  Level FlightAware Approximate
Sun 11:32:00 AM 32.0095 34.8769 125° Southeast  Level Estimated
Sun 11:33:00 AM 32.0095 34.8769 125° Southeast  Level Estimated
Sun 11:34:00 AM 32.0095 34.8769 125° Southeast  Level Estimated
Sun 11:35:00 AM 32.0095 34.8769 125° Southeast  Level Estimated
Sun 11:36:00 AM 32.0095 34.8769 125° Southeast  Level Estimated
Sun 11:37:00 AM 32.0095 34.8769 125° Southeast  Level Estimated
Sun 11:38:00 AM 32.0095 34.8769 125° Southeast  Level Estimated

Login

Don't have an account? Register now (free) for customized features, flight alerts, and more!